PAB260 GOBD-LPPT
Flight info
| Callsign | PAB260 |
|---|---|
| Flight time | 5h 34m |
| Altitude | 21000 |
| Route | BIKIS1H BIKIS UB601 GUPEL/N0225F230 Y601 KEMUL/N0226F240 Y601 LAY L660 SOLNA DCT ROLRO DCT TAKAV DCT VATZI |
| Aircraft | CONI/M-SDFY/C |
Departure
| Time | 2026-05-05 13:24 |
|---|---|
| Airport | Blaise Diagne International Airport (GOBD) |
Arrival
| Time | 2026-05-05 18:58 |
|---|---|
| Airport | Lisbon Humberto Delgado Airport (LPPT) |
| Time | Latitude | Longitude | Altitude | Speed | Heading |
|---|---|---|---|---|---|
| 2026-05-05 13:06 | 14.66869 | -17.06863 | 299 ft | 0 kts | 91° |
| 2026-05-05 13:14 | 14.66869 | -17.06865 | 299 ft | 1 kts | 91° |
| 2026-05-05 13:14 | 14.66869 | -17.06876 | 299 ft | 3 kts | 90° |
| 2026-05-05 13:14 | 14.66869 | -17.06898 | 299 ft | 3 kts | 89° |
| 2026-05-05 13:15 | 14.66868 | -17.06919 | 299 ft | 3 kts | 86° |
| 2026-05-05 13:15 | 14.66866 | -17.06939 | 299 ft | 3 kts | 83° |
| 2026-05-05 13:15 | 14.66862 | -17.06960 | 299 ft | 3 kts | 71° |
| 2026-05-05 13:15 | 14.66852 | -17.06975 | 299 ft | 3 kts | 22° |
| 2026-05-05 13:16 | 14.66844 | -17.06976 | 299 ft | 1 kts | 359° |
| 2026-05-05 13:16 | 14.66842 | -17.06976 | 299 ft | 0 kts | 359° |
| 2026-05-05 13:17 | 14.66843 | -17.06976 | 299 ft | 1 kts | 359° |
| 2026-05-05 13:17 | 14.66861 | -17.06976 | 299 ft | 6 kts | 359° |
| 2026-05-05 13:17 | 14.66942 | -17.06977 | 299 ft | 13 kts | 359° |
| 2026-05-05 13:17 | 14.67049 | -17.06979 | 299 ft | 9 kts | 349° |
| 2026-05-05 13:18 | 14.67079 | -17.07024 | 299 ft | 11 kts | 271° |
| 2026-05-05 13:18 | 14.67124 | -17.07096 | 299 ft | 16 kts | 355° |
| 2026-05-05 13:18 | 14.67258 | -17.07094 | 299 ft | 22 kts | 359° |
| 2026-05-05 13:18 | 14.67415 | -17.07095 | 299 ft | 22 kts | 358° |
| 2026-05-05 13:19 | 14.67571 | -17.07099 | 299 ft | 23 kts | 358° |
| 2026-05-05 13:19 | 14.67720 | -17.07113 | 299 ft | 17 kts | 5° |
| 2026-05-05 13:19 | 14.67836 | -17.07108 | 299 ft | 16 kts | 2° |
| 2026-05-05 13:19 | 14.67961 | -17.07112 | 299 ft | 17 kts | 351° |
| 2026-05-05 13:20 | 14.68069 | -17.07115 | 299 ft | 17 kts | 4° |
| 2026-05-05 13:20 | 14.68206 | -17.07104 | 299 ft | 22 kts | 359° |
| 2026-05-05 13:20 | 14.68375 | -17.07105 | 299 ft | 24 kts | 358° |
| 2026-05-05 13:20 | 14.68533 | -17.07111 | 299 ft | 17 kts | 358° |
| 2026-05-05 13:21 | 14.68600 | -17.07114 | 299 ft | 10 kts | 358° |
| 2026-05-05 13:21 | 14.68664 | -17.07131 | 299 ft | 10 kts | 306° |
| 2026-05-05 13:21 | 14.68673 | -17.07199 | 299 ft | 12 kts | 267° |
| 2026-05-05 13:21 | 14.68669 | -17.07279 | 299 ft | 10 kts | 255° |
| 2026-05-05 13:22 | 14.68645 | -17.07300 | 299 ft | 4 kts | 185° |
| 2026-05-05 13:22 | 14.68633 | -17.07300 | 299 ft | 0 kts | 178° |
| 2026-05-05 13:22 | 14.68632 | -17.07300 | 299 ft | 0 kts | 178° |
| 2026-05-05 13:22 | 14.68484 | -17.07296 | 299 ft | 54 kts | 178° |
| 2026-05-05 13:23 | 14.67934 | -17.07288 | 299 ft | 99 kts | 181° |
| 2026-05-05 13:23 | 14.67159 | -17.07288 | 358 ft | 118 kts | 182° |
| 2026-05-05 13:23 | 14.66332 | -17.07286 | 580 ft | 120 kts | 181° |
| 2026-05-05 13:23 | 14.65496 | -17.07269 | 860 ft | 121 kts | 181° |
| 2026-05-05 13:24 | 14.64613 | -17.07252 | 1044 ft | 137 kts | 181° |
| 2026-05-05 13:24 | 14.63609 | -17.07240 | 1288 ft | 151 kts | 181° |
| 2026-05-05 13:24 | 14.62497 | -17.07234 | 1446 ft | 168 kts | 181° |
| 2026-05-05 13:24 | 14.61286 | -17.07225 | 1584 ft | 179 kts | 181° |
| 2026-05-05 13:25 | 14.60006 | -17.07214 | 1718 ft | 188 kts | 181° |
| 2026-05-05 13:25 | 14.58681 | -17.07202 | 1845 ft | 191 kts | 181° |
| 2026-05-05 13:25 | 14.57344 | -17.07189 | 1978 ft | 193 kts | 181° |
| 2026-05-05 13:25 | 14.55989 | -17.07177 | 2106 ft | 196 kts | 181° |
| 2026-05-05 13:26 | 14.54619 | -17.07164 | 2229 ft | 198 kts | 181° |
| 2026-05-05 13:26 | 14.53681 | -17.07155 | 2313 ft | 198 kts | 181° |
| 2026-05-05 13:26 | 14.53354 | -17.07151 | 2348 ft | 198 kts | 181° |
| 2026-05-05 13:26 | 14.51992 | -17.06887 | 2471 ft | 203 kts | 158° |
| 2026-05-05 13:27 | 14.50819 | -17.05913 | 2604 ft | 207 kts | 127° |
| 2026-05-05 13:27 | 14.50276 | -17.04551 | 2721 ft | 207 kts | 98° |
| 2026-05-05 13:27 | 14.50408 | -17.03109 | 2852 ft | 206 kts | 70° |
| 2026-05-05 13:27 | 14.51182 | -17.01889 | 2977 ft | 204 kts | 40° |
| 2026-05-05 13:28 | 14.52406 | -17.01201 | 3100 ft | 200 kts | 12° |
| 2026-05-05 13:28 | 14.53777 | -17.01043 | 3229 ft | 198 kts | 359° |
| 2026-05-05 13:28 | 14.55148 | -17.01032 | 3355 ft | 197 kts | 357° |
| 2026-05-05 13:28 | 14.56519 | -17.01045 | 3477 ft | 197 kts | 357° |
| 2026-05-05 13:29 | 14.57889 | -17.01058 | 3602 ft | 197 kts | 357° |
| 2026-05-05 13:29 | 14.59258 | -17.01068 | 3727 ft | 196 kts | 358° |
| 2026-05-05 13:29 | 14.60624 | -17.01074 | 3851 ft | 196 kts | 358° |
| 2026-05-05 13:29 | 14.61987 | -17.01075 | 3975 ft | 196 kts | 358° |
| 2026-05-05 13:30 | 14.63345 | -17.01072 | 4102 ft | 195 kts | 358° |
| 2026-05-05 13:30 | 14.64710 | -17.01066 | 4231 ft | 197 kts | 358° |
| 2026-05-05 13:30 | 14.66086 | -17.01055 | 4357 ft | 199 kts | 359° |
| 2026-05-05 13:30 | 14.67470 | -17.01039 | 4480 ft | 199 kts | 359° |
| 2026-05-05 13:31 | 14.68858 | -17.01018 | 4604 ft | 199 kts | 359° |
| 2026-05-05 13:31 | 14.70244 | -17.00993 | 4729 ft | 199 kts | 359° |
| 2026-05-05 13:31 | 14.71629 | -17.00964 | 4854 ft | 199 kts | 359° |
| 2026-05-05 13:31 | 14.73012 | -17.00930 | 4978 ft | 199 kts | 0° |
| 2026-05-05 13:32 | 14.74393 | -17.00891 | 5104 ft | 198 kts | 0° |
| 2026-05-05 13:32 | 14.75774 | -17.00847 | 5231 ft | 199 kts | 0° |
| 2026-05-05 13:32 | 14.77158 | -17.00798 | 5356 ft | 199 kts | 0° |
| 2026-05-05 13:32 | 14.78542 | -17.00739 | 5478 ft | 199 kts | 2° |
| 2026-05-05 13:33 | 14.79918 | -17.00604 | 5604 ft | 199 kts | 6° |
| 2026-05-05 13:33 | 14.81279 | -17.00353 | 5731 ft | 199 kts | 11° |
| 2026-05-05 13:33 | 14.82620 | -17.00004 | 5856 ft | 199 kts | 14° |
| 2026-05-05 13:33 | 14.83943 | -16.99586 | 5978 ft | 198 kts | 17° |
| 2026-05-05 13:34 | 14.85245 | -16.99122 | 6108 ft | 198 kts | 19° |
| 2026-05-05 13:34 | 14.86541 | -16.98625 | 6242 ft | 200 kts | 20° |
| 2026-05-05 13:34 | 14.87843 | -16.98101 | 6368 ft | 202 kts | 20° |
| 2026-05-05 13:34 | 14.89148 | -16.97559 | 6480 ft | 202 kts | 21° |
| 2026-05-05 13:35 | 14.90448 | -16.97009 | 6609 ft | 202 kts | 21° |
| 2026-05-05 13:35 | 14.91755 | -16.96449 | 6739 ft | 204 kts | 22° |
| 2026-05-05 13:35 | 14.93074 | -16.95879 | 6866 ft | 206 kts | 22° |
| 2026-05-05 13:35 | 14.94402 | -16.95302 | 6984 ft | 207 kts | 22° |
| 2026-05-05 13:36 | 14.95727 | -16.94724 | 7113 ft | 207 kts | 22° |
| 2026-05-05 13:36 | 14.97061 | -16.94142 | 7243 ft | 209 kts | 22° |
| 2026-05-05 13:36 | 14.98409 | -16.93552 | 7369 ft | 212 kts | 22° |
| 2026-05-05 13:36 | 14.99749 | -16.92965 | 7486 ft | 212 kts | 22° |
| 2026-05-05 13:37 | 15.01106 | -16.92370 | 7612 ft | 212 kts | 22° |
| 2026-05-05 13:37 | 15.02462 | -16.91775 | 7736 ft | 212 kts | 22° |
| 2026-05-05 13:37 | 15.03817 | -16.91180 | 7861 ft | 211 kts | 22° |
| 2026-05-05 13:37 | 15.05167 | -16.90588 | 7986 ft | 211 kts | 22° |
| 2026-05-05 13:38 | 15.06516 | -16.89995 | 8110 ft | 210 kts | 22° |
| 2026-05-05 13:38 | 15.07861 | -16.89404 | 8235 ft | 210 kts | 23° |
| 2026-05-05 13:38 | 15.09205 | -16.88814 | 8360 ft | 210 kts | 23° |
| 2026-05-05 13:38 | 15.10553 | -16.88222 | 8489 ft | 211 kts | 23° |
| 2026-05-05 13:39 | 15.11912 | -16.87624 | 8614 ft | 213 kts | 23° |
| 2026-05-05 13:39 | 15.13278 | -16.87024 | 8738 ft | 214 kts | 23° |
| 2026-05-05 13:39 | 15.14647 | -16.86423 | 8863 ft | 214 kts | 23° |
| 2026-05-05 13:39 | 15.16015 | -16.85821 | 8988 ft | 214 kts | 23° |
| 2026-05-05 13:40 | 15.17384 | -16.85219 | 9123 ft | 214 kts | 23° |
| 2026-05-05 13:40 | 15.18762 | -16.84613 | 9253 ft | 216 kts | 23° |
| 2026-05-05 13:40 | 15.20156 | -16.84000 | 9377 ft | 218 kts | 23° |
| 2026-05-05 13:40 | 15.21552 | -16.83386 | 9491 ft | 218 kts | 23° |
| 2026-05-05 13:41 | 15.22943 | -16.82774 | 9623 ft | 217 kts | 23° |
| 2026-05-05 13:41 | 15.24338 | -16.82161 | 9752 ft | 219 kts | 23° |
| 2026-05-05 13:41 | 15.25741 | -16.81543 | 9879 ft | 220 kts | 23° |
| 2026-05-05 13:41 | 15.27146 | -16.80924 | 9993 ft | 219 kts | 23° |
| 2026-05-05 13:42 | 15.28544 | -16.80309 | 10125 ft | 218 kts | 23° |
| 2026-05-05 13:42 | 15.29943 | -16.79693 | 10256 ft | 219 kts | 23° |
| 2026-05-05 13:42 | 15.31352 | -16.79073 | 10378 ft | 221 kts | 24° |
| 2026-05-05 13:42 | 15.32760 | -16.78453 | 10494 ft | 219 kts | 24° |
| 2026-05-05 13:43 | 15.34157 | -16.77838 | 10624 ft | 218 kts | 24° |
| 2026-05-05 13:43 | 15.35561 | -16.77219 | 10718 ft | 221 kts | 24° |
| 2026-05-05 13:43 | 15.36989 | -16.76590 | 10791 ft | 225 kts | 24° |
| 2026-05-05 13:43 | 15.38431 | -16.75954 | 10859 ft | 226 kts | 24° |
| 2026-05-05 13:44 | 15.39876 | -16.75317 | 10936 ft | 226 kts | 24° |
| 2026-05-05 13:44 | 15.41324 | -16.74679 | 11013 ft | 227 kts | 24° |
| 2026-05-05 13:44 | 15.42778 | -16.74038 | 11087 ft | 227 kts | 24° |
| 2026-05-05 13:44 | 15.44231 | -16.73398 | 11160 ft | 227 kts | 24° |
| 2026-05-05 13:45 | 15.45685 | -16.72757 | 11244 ft | 227 kts | 24° |
| 2026-05-05 13:45 | 15.47145 | -16.72113 | 11324 ft | 229 kts | 24° |
| 2026-05-05 13:45 | 15.48600 | -16.71471 | 11392 ft | 231 kts | 24° |
| 2026-05-05 13:45 | 15.50077 | -16.70819 | 11462 ft | 230 kts | 24° |
| 2026-05-05 13:46 | 15.51549 | -16.70170 | 11536 ft | 229 kts | 24° |
| 2026-05-05 13:46 | 15.53013 | -16.69524 | 11611 ft | 228 kts | 24° |
| 2026-05-05 13:46 | 15.54472 | -16.68879 | 11685 ft | 228 kts | 24° |
| 2026-05-05 13:46 | 15.55927 | -16.68237 | 11760 ft | 227 kts | 24° |
| 2026-05-05 13:47 | 15.57379 | -16.67597 | 11836 ft | 226 kts | 23° |
| 2026-05-05 13:47 | 15.58828 | -16.66960 | 11908 ft | 226 kts | 23° |
| 2026-05-05 13:47 | 15.60271 | -16.66323 | 11983 ft | 225 kts | 23° |
| 2026-05-05 13:47 | 15.61709 | -16.65687 | 12058 ft | 224 kts | 23° |
| 2026-05-05 13:48 | 15.63145 | -16.65052 | 12135 ft | 224 kts | 23° |
| 2026-05-05 13:48 | 15.64579 | -16.64420 | 12209 ft | 224 kts | 23° |
| 2026-05-05 13:48 | 15.66009 | -16.63787 | 12284 ft | 223 kts | 24° |
| 2026-05-05 13:48 | 15.67438 | -16.63154 | 12359 ft | 223 kts | 23° |
| 2026-05-05 13:49 | 15.68866 | -16.62523 | 12436 ft | 223 kts | 23° |
| 2026-05-05 13:49 | 15.70291 | -16.61894 | 12512 ft | 223 kts | 23° |
| 2026-05-05 13:49 | 15.71716 | -16.61264 | 12588 ft | 222 kts | 23° |
| 2026-05-05 13:49 | 15.73140 | -16.60634 | 12663 ft | 222 kts | 23° |
| 2026-05-05 13:50 | 15.74563 | -16.60004 | 12738 ft | 222 kts | 23° |
| 2026-05-05 13:50 | 15.75985 | -16.59373 | 12813 ft | 222 kts | 23° |
| 2026-05-05 13:50 | 15.77409 | -16.58743 | 12888 ft | 222 kts | 23° |
| 2026-05-05 13:50 | 15.78830 | -16.58114 | 12962 ft | 222 kts | 23° |
| 2026-05-05 13:51 | 15.80253 | -16.57484 | 13037 ft | 222 kts | 23° |
| 2026-05-05 13:51 | 15.81673 | -16.56855 | 13094 ft | 221 kts | 23° |
| 2026-05-05 13:51 | 15.83094 | -16.56226 | 13121 ft | 224 kts | 23° |
| 2026-05-05 13:51 | 15.84531 | -16.55590 | 13186 ft | 225 kts | 23° |
| 2026-05-05 13:52 | 15.85973 | -16.54951 | 13261 ft | 226 kts | 23° |
| 2026-05-05 13:52 | 15.87418 | -16.54310 | 13337 ft | 226 kts | 23° |
| 2026-05-05 13:52 | 15.88864 | -16.53669 | 13412 ft | 226 kts | 23° |
| 2026-05-05 13:52 | 15.90315 | -16.53026 | 13486 ft | 227 kts | 23° |
| 2026-05-05 13:53 | 15.91276 | -16.52600 | 13537 ft | 227 kts | 23° |
| 2026-05-05 13:53 | 15.92728 | -16.51956 | 13612 ft | 227 kts | 23° |
| 2026-05-05 13:53 | 15.94181 | -16.51312 | 13687 ft | 227 kts | 23° |
| 2026-05-05 13:53 | 15.95637 | -16.50667 | 13762 ft | 228 kts | 23° |
| 2026-05-05 13:54 | 15.97097 | -16.50019 | 13837 ft | 228 kts | 23° |
| 2026-05-05 13:54 | 15.98558 | -16.49371 | 13923 ft | 229 kts | 23° |
| 2026-05-05 13:54 | 16.00034 | -16.48716 | 14003 ft | 232 kts | 23° |
| 2026-05-05 13:54 | 16.01528 | -16.48053 | 14073 ft | 234 kts | 23° |
| 2026-05-05 13:55 | 16.03025 | -16.47389 | 14143 ft | 234 kts | 23° |
| 2026-05-05 13:55 | 16.04535 | -16.46760 | 14226 ft | 234 kts | 19° |
| 2026-05-05 13:55 | 16.06097 | -16.46257 | 14302 ft | 235 kts | 15° |
| 2026-05-05 13:55 | 16.07680 | -16.45821 | 14369 ft | 235 kts | 14° |
| 2026-05-05 13:56 | 16.09267 | -16.45417 | 14443 ft | 234 kts | 13° |
| 2026-05-05 13:56 | 16.10852 | -16.45031 | 14518 ft | 234 kts | 13° |
| 2026-05-05 13:56 | 16.12433 | -16.44654 | 14593 ft | 233 kts | 12° |
| 2026-05-05 13:56 | 16.14015 | -16.44284 | 14668 ft | 233 kts | 12° |
| 2026-05-05 13:57 | 16.15601 | -16.43916 | 14743 ft | 234 kts | 12° |
| 2026-05-05 13:57 | 16.17193 | -16.43549 | 14818 ft | 235 kts | 12° |
| 2026-05-05 13:57 | 16.18789 | -16.43183 | 14893 ft | 235 kts | 12° |
| 2026-05-05 13:57 | 16.20388 | -16.42818 | 14970 ft | 235 kts | 12° |
| 2026-05-05 13:58 | 16.21988 | -16.42453 | 15045 ft | 236 kts | 12° |
| 2026-05-05 13:58 | 16.23590 | -16.42088 | 15120 ft | 236 kts | 12° |
| 2026-05-05 13:58 | 16.25192 | -16.41723 | 15199 ft | 236 kts | 12° |
| 2026-05-05 13:58 | 16.26796 | -16.41359 | 15275 ft | 236 kts | 12° |
| 2026-05-05 13:59 | 16.30004 | -16.40630 | 15425 ft | 236 kts | 12° |
| 2026-05-05 13:59 | 16.31610 | -16.40265 | 15500 ft | 236 kts | 12° |
| 2026-05-05 14:00 | 16.34824 | -16.39535 | 15650 ft | 236 kts | 12° |
| 2026-05-05 14:00 | 16.36429 | -16.39170 | 15725 ft | 236 kts | 12° |
| 2026-05-05 14:00 | 16.38037 | -16.38805 | 15801 ft | 236 kts | 12° |
| 2026-05-05 14:00 | 16.39641 | -16.38440 | 15878 ft | 236 kts | 12° |
| 2026-05-05 14:01 | 16.41249 | -16.38074 | 15954 ft | 237 kts | 12° |
| 2026-05-05 14:01 | 16.42862 | -16.37708 | 16029 ft | 238 kts | 12° |
| 2026-05-05 14:01 | 16.43472 | -16.37569 | 16058 ft | 238 kts | 12° |
| 2026-05-05 14:01 | 16.43648 | -16.37529 | 16066 ft | 238 kts | 12° |
| 2026-05-05 14:02 | 16.45265 | -16.37161 | 16141 ft | 238 kts | 12° |
| 2026-05-05 14:02 | 16.46888 | -16.36792 | 16216 ft | 239 kts | 12° |
| 2026-05-05 14:02 | 16.48510 | -16.36423 | 16291 ft | 239 kts | 12° |
| 2026-05-05 14:02 | 16.50113 | -16.36058 | 16366 ft | 239 kts | 12° |
| 2026-05-05 14:03 | 16.51740 | -16.35688 | 16441 ft | 239 kts | 12° |
| 2026-05-05 14:03 | 16.53368 | -16.35318 | 16516 ft | 240 kts | 12° |
| 2026-05-05 14:03 | 16.54998 | -16.34947 | 16591 ft | 240 kts | 12° |
| 2026-05-05 14:03 | 16.56632 | -16.34575 | 16667 ft | 240 kts | 12° |
| 2026-05-05 14:04 | 16.58262 | -16.34203 | 16742 ft | 240 kts | 12° |
| 2026-05-05 14:04 | 16.59898 | -16.33830 | 16821 ft | 241 kts | 12° |
| 2026-05-05 14:04 | 16.61539 | -16.33456 | 16897 ft | 242 kts | 12° |
| 2026-05-05 14:04 | 16.63189 | -16.33080 | 16976 ft | 243 kts | 12° |
| 2026-05-05 14:05 | 16.64839 | -16.32703 | 17052 ft | 243 kts | 12° |
| 2026-05-05 14:05 | 16.66495 | -16.32326 | 17128 ft | 244 kts | 12° |
| 2026-05-05 14:05 | 16.68154 | -16.31948 | 17203 ft | 244 kts | 12° |
| 2026-05-05 14:05 | 16.69814 | -16.31568 | 17280 ft | 244 kts | 12° |
| 2026-05-05 14:06 | 16.71479 | -16.31189 | 17357 ft | 245 kts | 11° |
| 2026-05-05 14:06 | 16.73151 | -16.30808 | 17445 ft | 248 kts | 11° |
| 2026-05-05 14:06 | 16.74847 | -16.30422 | 17515 ft | 251 kts | 11° |
| 2026-05-05 14:06 | 16.76556 | -16.30032 | 17583 ft | 252 kts | 11° |
| 2026-05-05 14:07 | 16.78266 | -16.29642 | 17657 ft | 252 kts | 11° |
| 2026-05-05 14:07 | 16.79979 | -16.29251 | 17733 ft | 252 kts | 11° |
| 2026-05-05 14:07 | 16.81693 | -16.28860 | 17804 ft | 252 kts | 11° |
| 2026-05-05 14:07 | 16.83409 | -16.28468 | 17876 ft | 253 kts | 11° |
| 2026-05-05 14:08 | 16.85126 | -16.28076 | 17952 ft | 253 kts | 11° |
| 2026-05-05 14:08 | 16.86845 | -16.27684 | 18029 ft | 253 kts | 11° |
| 2026-05-05 14:08 | 16.88568 | -16.27290 | 18104 ft | 253 kts | 11° |
| 2026-05-05 14:08 | 16.90290 | -16.26897 | 18179 ft | 253 kts | 11° |
| 2026-05-05 14:09 | 16.92008 | -16.26504 | 18254 ft | 253 kts | 11° |
| 2026-05-05 14:09 | 16.93703 | -16.26117 | 18328 ft | 252 kts | 11° |
| 2026-05-05 14:09 | 16.95418 | -16.25725 | 18403 ft | 252 kts | 11° |
| 2026-05-05 14:09 | 16.97133 | -16.25332 | 18478 ft | 252 kts | 11° |
| 2026-05-05 14:10 | 16.98871 | -16.24935 | 18554 ft | 252 kts | 11° |
| 2026-05-05 14:10 | 17.00583 | -16.24543 | 18628 ft | 252 kts | 11° |
| 2026-05-05 14:10 | 17.02295 | -16.24151 | 18702 ft | 252 kts | 11° |
| 2026-05-05 14:10 | 17.04005 | -16.23759 | 18777 ft | 252 kts | 11° |
| 2026-05-05 14:11 | 17.05714 | -16.23368 | 18852 ft | 251 kts | 11° |
| 2026-05-05 14:11 | 17.07421 | -16.22978 | 18927 ft | 251 kts | 11° |
| 2026-05-05 14:11 | 17.09104 | -16.22593 | 19000 ft | 251 kts | 11° |
| 2026-05-05 14:11 | 17.10810 | -16.22202 | 19075 ft | 251 kts | 11° |
| 2026-05-05 14:12 | 17.12509 | -16.21813 | 19150 ft | 250 kts | 11° |
| 2026-05-05 14:12 | 17.14211 | -16.21423 | 19225 ft | 250 kts | 11° |
| 2026-05-05 14:12 | 17.15908 | -16.21034 | 19300 ft | 250 kts | 11° |
| 2026-05-05 14:12 | 17.17602 | -16.20646 | 19375 ft | 249 kts | 11° |
| 2026-05-05 14:13 | 17.19297 | -16.20257 | 19450 ft | 249 kts | 11° |
| 2026-05-05 14:13 | 17.20990 | -16.19869 | 19525 ft | 249 kts | 11° |
| 2026-05-05 14:13 | 17.22681 | -16.19482 | 19599 ft | 249 kts | 11° |
| 2026-05-05 14:13 | 17.24381 | -16.19092 | 19675 ft | 251 kts | 11° |
| 2026-05-05 14:14 | 17.26088 | -16.18701 | 19747 ft | 252 kts | 11° |
| 2026-05-05 14:14 | 17.27801 | -16.18308 | 19822 ft | 252 kts | 11° |
| 2026-05-05 14:14 | 17.29519 | -16.17914 | 19897 ft | 253 kts | 11° |
| 2026-05-05 14:14 | 17.31240 | -16.17519 | 19973 ft | 254 kts | 11° |
| 2026-05-05 14:15 | 17.32963 | -16.17123 | 20048 ft | 254 kts | 11° |
| 2026-05-05 14:15 | 17.34691 | -16.16726 | 20124 ft | 254 kts | 11° |
| 2026-05-05 14:15 | 17.36417 | -16.16329 | 20201 ft | 254 kts | 10° |
| 2026-05-05 14:15 | 17.38147 | -16.15932 | 20276 ft | 254 kts | 10° |
| 2026-05-05 14:16 | 17.39877 | -16.15535 | 20351 ft | 254 kts | 10° |
| 2026-05-05 14:16 | 17.41605 | -16.15138 | 20426 ft | 254 kts | 10° |
| 2026-05-05 14:16 | 17.43334 | -16.14741 | 20501 ft | 254 kts | 10° |
| 2026-05-05 14:16 | 17.45063 | -16.14343 | 20576 ft | 254 kts | 10° |
| 2026-05-05 14:17 | 17.46790 | -16.13946 | 20651 ft | 254 kts | 10° |
| 2026-05-05 14:17 | 17.48515 | -16.13549 | 20726 ft | 254 kts | 10° |
| 2026-05-05 14:17 | 17.50221 | -16.13157 | 20800 ft | 254 kts | 10° |
| 2026-05-05 14:17 | 17.51944 | -16.12760 | 20875 ft | 254 kts | 10° |
| 2026-05-05 14:18 | 17.53668 | -16.12363 | 20934 ft | 254 kts | 10° |
| 2026-05-05 14:18 | 17.55402 | -16.11965 | 20952 ft | 256 kts | 10° |
| 2026-05-05 14:18 | 17.57154 | -16.11562 | 20955 ft | 259 kts | 10° |
| 2026-05-05 14:18 | 17.58925 | -16.11155 | 20954 ft | 262 kts | 10° |
| 2026-05-05 14:19 | 17.60715 | -16.10743 | 20953 ft | 265 kts | 10° |
| 2026-05-05 14:19 | 17.62522 | -16.10328 | 20952 ft | 267 kts | 10° |
| 2026-05-05 14:19 | 17.64337 | -16.09909 | 20950 ft | 268 kts | 10° |
| 2026-05-05 14:19 | 17.66167 | -16.09488 | 20949 ft | 270 kts | 10° |
| 2026-05-05 14:20 | 17.68006 | -16.09064 | 20949 ft | 272 kts | 10° |
| 2026-05-05 14:20 | 17.69865 | -16.08635 | 20944 ft | 275 kts | 10° |
| 2026-05-05 14:20 | 17.71739 | -16.08203 | 20942 ft | 277 kts | 10° |
| 2026-05-05 14:20 | 17.73629 | -16.07767 | 20941 ft | 279 kts | 10° |
| 2026-05-05 14:21 | 17.75527 | -16.07329 | 20940 ft | 280 kts | 11° |
| 2026-05-05 14:21 | 17.77439 | -16.06888 | 20939 ft | 282 kts | 10° |
| 2026-05-05 14:21 | 17.79361 | -16.06444 | 20939 ft | 284 kts | 10° |
| 2026-05-05 14:21 | 17.81294 | -16.05998 | 20939 ft | 285 kts | 10° |
| 2026-05-05 14:22 | 17.83237 | -16.05550 | 20939 ft | 287 kts | 10° |
| 2026-05-05 14:22 | 17.85193 | -16.05098 | 20938 ft | 288 kts | 10° |
| 2026-05-05 14:22 | 17.87156 | -16.04645 | 20937 ft | 290 kts | 11° |
| 2026-05-05 14:22 | 17.89128 | -16.04188 | 20939 ft | 291 kts | 11° |
| 2026-05-05 14:23 | 17.91109 | -16.03730 | 20937 ft | 292 kts | 11° |
| 2026-05-05 14:23 | 17.93097 | -16.03271 | 20937 ft | 293 kts | 11° |
| 2026-05-05 14:23 | 17.95096 | -16.02808 | 20937 ft | 295 kts | 11° |
| 2026-05-05 14:23 | 17.97100 | -16.02345 | 20937 ft | 296 kts | 11° |
| 2026-05-05 14:24 | 17.99114 | -16.01879 | 20936 ft | 297 kts | 11° |
| 2026-05-05 14:24 | 18.01134 | -16.01412 | 20953 ft | 298 kts | 11° |
| 2026-05-05 14:24 | 18.03156 | -16.00944 | 21018 ft | 297 kts | 11° |
| 2026-05-05 14:24 | 18.05172 | -16.00477 | 21092 ft | 296 kts | 11° |
| 2026-05-05 14:25 | 18.07182 | -16.00011 | 21165 ft | 296 kts | 11° |
| 2026-05-05 14:25 | 18.09188 | -15.99545 | 21238 ft | 295 kts | 11° |
| 2026-05-05 14:25 | 18.11186 | -15.99082 | 21312 ft | 294 kts | 10° |
| 2026-05-05 14:25 | 18.13180 | -15.98620 | 21387 ft | 293 kts | 10° |
| 2026-05-05 14:26 | 18.15168 | -15.98160 | 21461 ft | 292 kts | 10° |
| 2026-05-05 14:26 | 18.17120 | -15.97707 | 21534 ft | 291 kts | 10° |
| 2026-05-05 14:26 | 18.19095 | -15.97249 | 21608 ft | 290 kts | 10° |
| 2026-05-05 14:26 | 18.21063 | -15.96793 | 21682 ft | 289 kts | 10° |
| 2026-05-05 14:27 | 18.23023 | -15.96338 | 21756 ft | 288 kts | 10° |
| 2026-05-05 14:27 | 18.24982 | -15.95906 | 21827 ft | 287 kts | 6° |
| 2026-05-05 14:27 | 18.26955 | -15.95874 | 21899 ft | 282 kts | 351° |
| 2026-05-05 14:27 | 18.28879 | -15.96215 | 21930 ft | 280 kts | 343° |
| 2026-05-05 14:28 | 18.30768 | -15.96731 | 21937 ft | 281 kts | 340° |
| 2026-05-05 14:28 | 18.32638 | -15.97339 | 21936 ft | 282 kts | 338° |
| 2026-05-05 14:28 | 18.34502 | -15.98000 | 21937 ft | 284 kts | 336° |
| 2026-05-05 14:28 | 18.36369 | -15.98692 | 21935 ft | 285 kts | 336° |
| 2026-05-05 14:29 | 18.38240 | -15.99407 | 21935 ft | 287 kts | 335° |
| 2026-05-05 14:29 | 18.40119 | -16.00137 | 21935 ft | 288 kts | 335° |
| 2026-05-05 14:29 | 18.42001 | -16.00876 | 21935 ft | 289 kts | 335° |
| 2026-05-05 14:29 | 18.43886 | -16.01623 | 21936 ft | 290 kts | 335° |
| 2026-05-05 14:30 | 18.45773 | -16.02374 | 21935 ft | 290 kts | 335° |
| 2026-05-05 14:30 | 18.47666 | -16.03133 | 21935 ft | 291 kts | 335° |
| 2026-05-05 14:30 | 18.49560 | -16.03894 | 21935 ft | 292 kts | 335° |
| 2026-05-05 14:30 | 18.51457 | -16.04658 | 21934 ft | 292 kts | 335° |
| 2026-05-05 14:31 | 18.53360 | -16.05426 | 21935 ft | 293 kts | 334° |
| 2026-05-05 14:31 | 18.55265 | -16.06196 | 21935 ft | 294 kts | 334° |
| 2026-05-05 14:31 | 18.57178 | -16.06970 | 21935 ft | 294 kts | 334° |
| 2026-05-05 14:31 | 18.59065 | -16.07734 | 21935 ft | 295 kts | 334° |
| 2026-05-05 14:32 | 18.60980 | -16.08510 | 21936 ft | 295 kts | 334° |
| 2026-05-05 14:32 | 18.62899 | -16.09289 | 21935 ft | 296 kts | 334° |
| 2026-05-05 14:32 | 18.64823 | -16.10069 | 21935 ft | 296 kts | 334° |
| 2026-05-05 14:32 | 18.66775 | -16.10861 | 21936 ft | 297 kts | 334° |
| 2026-05-05 14:33 | 18.68704 | -16.11645 | 21935 ft | 297 kts | 334° |
| 2026-05-05 14:33 | 18.70611 | -16.12419 | 21936 ft | 298 kts | 334° |
| 2026-05-05 14:33 | 18.72545 | -16.13205 | 21935 ft | 298 kts | 334° |
| 2026-05-05 14:33 | 18.74482 | -16.13992 | 21936 ft | 299 kts | 334° |
| 2026-05-05 14:34 | 18.76424 | -16.14781 | 21936 ft | 299 kts | 334° |
| 2026-05-05 14:34 | 18.78368 | -16.15571 | 21936 ft | 299 kts | 334° |
| 2026-05-05 14:34 | 18.80312 | -16.16362 | 21936 ft | 300 kts | 334° |
| 2026-05-05 14:34 | 18.82261 | -16.17155 | 21935 ft | 300 kts | 334° |
| 2026-05-05 14:35 | 18.84209 | -16.17948 | 21936 ft | 300 kts | 334° |
| 2026-05-05 14:35 | 18.86162 | -16.18743 | 21936 ft | 301 kts | 334° |
| 2026-05-05 14:35 | 18.88113 | -16.19538 | 21936 ft | 301 kts | 334° |
| 2026-05-05 14:35 | 18.90073 | -16.20336 | 21937 ft | 301 kts | 334° |
| 2026-05-05 14:36 | 18.92028 | -16.21133 | 21937 ft | 302 kts | 334° |
| 2026-05-05 14:36 | 18.93989 | -16.21932 | 21936 ft | 302 kts | 334° |
| 2026-05-05 14:36 | 18.95948 | -16.22731 | 21937 ft | 302 kts | 334° |
| 2026-05-05 14:36 | 18.97909 | -16.23531 | 21936 ft | 302 kts | 334° |
| 2026-05-05 14:37 | 18.99874 | -16.24332 | 21937 ft | 303 kts | 334° |
| 2026-05-05 14:37 | 19.01839 | -16.25134 | 21937 ft | 303 kts | 334° |
| 2026-05-05 14:37 | 19.03806 | -16.25936 | 21939 ft | 303 kts | 334° |
| 2026-05-05 14:37 | 19.05772 | -16.26738 | 21939 ft | 303 kts | 334° |
| 2026-05-05 14:38 | 19.07741 | -16.27542 | 21937 ft | 303 kts | 334° |
| 2026-05-05 14:38 | 19.09710 | -16.28347 | 21938 ft | 304 kts | 334° |
| 2026-05-05 14:38 | 19.11682 | -16.29152 | 21937 ft | 304 kts | 334° |
| 2026-05-05 14:38 | 19.13655 | -16.29958 | 21941 ft | 305 kts | 334° |
| 2026-05-05 14:39 | 19.15640 | -16.30771 | 21937 ft | 306 kts | 334° |
| 2026-05-05 14:39 | 19.17630 | -16.31584 | 21935 ft | 306 kts | 334° |
| 2026-05-05 14:39 | 19.19617 | -16.32396 | 21936 ft | 306 kts | 334° |
| 2026-05-05 14:39 | 19.21604 | -16.33209 | 21937 ft | 306 kts | 334° |
| 2026-05-05 14:40 | 19.23588 | -16.34020 | 21937 ft | 306 kts | 334° |
| 2026-05-05 14:40 | 19.24904 | -16.34558 | 21938 ft | 306 kts | 334° |
| 2026-05-05 14:40 | 19.26888 | -16.35370 | 21936 ft | 306 kts | 334° |
| 2026-05-05 14:40 | 19.28871 | -16.36182 | 21936 ft | 306 kts | 334° |
| 2026-05-05 14:41 | 19.31498 | -16.37258 | 21937 ft | 305 kts | 334° |
| 2026-05-05 14:41 | 19.33482 | -16.38070 | 21938 ft | 305 kts | 334° |
| 2026-05-05 14:41 | 19.35462 | -16.38881 | 21939 ft | 305 kts | 334° |
| 2026-05-05 14:41 | 19.36800 | -16.39430 | 21939 ft | 305 kts | 334° |
| 2026-05-05 14:42 | 19.38783 | -16.40243 | 21938 ft | 305 kts | 334° |
| 2026-05-05 14:42 | 19.40763 | -16.41055 | 21938 ft | 305 kts | 334° |
| 2026-05-05 14:42 | 19.43387 | -16.42131 | 21938 ft | 305 kts | 334° |
| 2026-05-05 14:42 | 19.44725 | -16.42680 | 21938 ft | 305 kts | 334° |
| 2026-05-05 14:43 | 19.46706 | -16.43493 | 21937 ft | 305 kts | 334° |
| 2026-05-05 14:43 | 19.48685 | -16.44305 | 21938 ft | 305 kts | 334° |
| 2026-05-05 14:43 | 19.50664 | -16.45118 | 21937 ft | 305 kts | 334° |
| 2026-05-05 14:43 | 19.52644 | -16.45930 | 21937 ft | 305 kts | 334° |
| 2026-05-05 14:44 | 19.54622 | -16.46743 | 21937 ft | 305 kts | 334° |
| 2026-05-05 14:44 | 19.56577 | -16.47547 | 21936 ft | 305 kts | 334° |
| 2026-05-05 14:44 | 19.58555 | -16.48360 | 21936 ft | 305 kts | 334° |
| 2026-05-05 14:44 | 19.60534 | -16.49173 | 21938 ft | 305 kts | 334° |
| 2026-05-05 14:45 | 19.62511 | -16.49986 | 21938 ft | 305 kts | 334° |
| 2026-05-05 14:45 | 19.64489 | -16.50799 | 21937 ft | 305 kts | 334° |
| 2026-05-05 14:45 | 19.66466 | -16.51613 | 21936 ft | 305 kts | 334° |
| 2026-05-05 14:45 | 19.68446 | -16.52428 | 21935 ft | 305 kts | 334° |
| 2026-05-05 14:46 | 19.70422 | -16.53242 | 21936 ft | 305 kts | 334° |
| 2026-05-05 14:46 | 19.72401 | -16.54057 | 21935 ft | 305 kts | 334° |
| 2026-05-05 14:46 | 19.74378 | -16.54871 | 21935 ft | 305 kts | 334° |
| 2026-05-05 14:46 | 19.76356 | -16.55686 | 21933 ft | 305 kts | 334° |
| 2026-05-05 14:47 | 19.78334 | -16.56501 | 21934 ft | 305 kts | 334° |
| 2026-05-05 14:47 | 19.80311 | -16.57316 | 21935 ft | 305 kts | 334° |
| 2026-05-05 14:47 | 19.82289 | -16.58132 | 21935 ft | 305 kts | 333° |
| 2026-05-05 14:47 | 19.84266 | -16.58947 | 21937 ft | 305 kts | 334° |
| 2026-05-05 14:48 | 19.86246 | -16.59764 | 21937 ft | 305 kts | 334° |
| 2026-05-05 14:48 | 19.88224 | -16.60580 | 21936 ft | 305 kts | 334° |
| 2026-05-05 14:48 | 19.90202 | -16.61397 | 21939 ft | 305 kts | 334° |
| 2026-05-05 14:48 | 19.92183 | -16.62215 | 21937 ft | 305 kts | 334° |
| 2026-05-05 14:49 | 19.94161 | -16.63032 | 21936 ft | 305 kts | 334° |
| 2026-05-05 14:49 | 19.96114 | -16.63839 | 21935 ft | 305 kts | 334° |
| 2026-05-05 14:49 | 19.98095 | -16.64657 | 21932 ft | 305 kts | 334° |
| 2026-05-05 14:49 | 20.00073 | -16.65475 | 21934 ft | 305 kts | 334° |
| 2026-05-05 14:50 | 20.02055 | -16.66294 | 21939 ft | 305 kts | 333° |
| 2026-05-05 14:50 | 20.04032 | -16.67112 | 21938 ft | 305 kts | 333° |
| 2026-05-05 14:50 | 20.06011 | -16.67931 | 21940 ft | 305 kts | 333° |
| 2026-05-05 14:50 | 20.07989 | -16.68749 | 21938 ft | 305 kts | 333° |
| 2026-05-05 14:51 | 20.09968 | -16.69569 | 21936 ft | 305 kts | 333° |
| 2026-05-05 14:51 | 20.11946 | -16.70387 | 21936 ft | 305 kts | 333° |
| 2026-05-05 14:51 | 20.13924 | -16.71207 | 21934 ft | 305 kts | 333° |
| 2026-05-05 14:51 | 20.15904 | -16.72027 | 21935 ft | 305 kts | 333° |
| 2026-05-05 14:52 | 20.17885 | -16.72848 | 21935 ft | 305 kts | 333° |
| 2026-05-05 14:52 | 20.19863 | -16.73668 | 21936 ft | 305 kts | 333° |
| 2026-05-05 14:52 | 20.21838 | -16.74487 | 21935 ft | 305 kts | 333° |
| 2026-05-05 14:52 | 20.23817 | -16.75308 | 21934 ft | 305 kts | 333° |
| 2026-05-05 14:53 | 20.25792 | -16.76128 | 21935 ft | 305 kts | 333° |
| 2026-05-05 14:53 | 20.27771 | -16.76949 | 21935 ft | 305 kts | 333° |
| 2026-05-05 14:53 | 20.29747 | -16.77768 | 21934 ft | 305 kts | 333° |
| 2026-05-05 14:53 | 20.31722 | -16.78588 | 21938 ft | 305 kts | 333° |
| 2026-05-05 14:54 | 20.33699 | -16.79409 | 21937 ft | 305 kts | 333° |
| 2026-05-05 14:54 | 20.35675 | -16.80230 | 21935 ft | 305 kts | 333° |
| 2026-05-05 14:54 | 20.37651 | -16.81051 | 21935 ft | 305 kts | 333° |
| 2026-05-05 14:54 | 20.39627 | -16.81872 | 21934 ft | 305 kts | 333° |
| 2026-05-05 14:55 | 20.41604 | -16.82694 | 21934 ft | 305 kts | 333° |
| 2026-05-05 14:55 | 20.43582 | -16.83516 | 21935 ft | 305 kts | 333° |
| 2026-05-05 14:55 | 20.45560 | -16.84339 | 21934 ft | 305 kts | 333° |
| 2026-05-05 14:55 | 20.47535 | -16.85160 | 21937 ft | 305 kts | 333° |
| 2026-05-05 14:56 | 20.49510 | -16.85983 | 21931 ft | 305 kts | 333° |
| 2026-05-05 14:56 | 20.51487 | -16.86806 | 21932 ft | 305 kts | 333° |
| 2026-05-05 14:56 | 20.53462 | -16.87628 | 21934 ft | 305 kts | 333° |
| 2026-05-05 14:56 | 20.55438 | -16.88451 | 21934 ft | 305 kts | 333° |
| 2026-05-05 14:57 | 20.57387 | -16.89263 | 21933 ft | 305 kts | 333° |
| 2026-05-05 14:57 | 20.59388 | -16.90097 | 21933 ft | 305 kts | 333° |
| 2026-05-05 14:57 | 20.61337 | -16.90910 | 21931 ft | 305 kts | 333° |
| 2026-05-05 14:57 | 20.63338 | -16.91745 | 21930 ft | 305 kts | 333° |
| 2026-05-05 14:58 | 20.65312 | -16.92568 | 21933 ft | 305 kts | 333° |
| 2026-05-05 14:58 | 20.67260 | -16.93380 | 21934 ft | 305 kts | 333° |
| 2026-05-05 14:58 | 20.69234 | -16.94204 | 21933 ft | 305 kts | 333° |
| 2026-05-05 14:58 | 20.71207 | -16.95028 | 21934 ft | 305 kts | 333° |
| 2026-05-05 14:59 | 20.73181 | -16.95852 | 21934 ft | 305 kts | 333° |
| 2026-05-05 14:59 | 20.75155 | -16.96678 | 21934 ft | 305 kts | 333° |
| 2026-05-05 14:59 | 20.77129 | -16.97502 | 21934 ft | 305 kts | 333° |
| 2026-05-05 14:59 | 20.79102 | -16.98327 | 21934 ft | 305 kts | 333° |
| 2026-05-05 15:00 | 20.81077 | -16.99153 | 21933 ft | 305 kts | 333° |
| 2026-05-05 15:00 | 20.82410 | -16.99711 | 21933 ft | 305 kts | 333° |
| 2026-05-05 15:00 | 20.85024 | -17.00805 | 21933 ft | 305 kts | 333° |
| 2026-05-05 15:00 | 20.86997 | -17.01631 | 21934 ft | 305 kts | 333° |
| 2026-05-05 15:01 | 20.89035 | -17.02296 | 21930 ft | 311 kts | 346° |
| 2026-05-05 15:01 | 20.91222 | -17.02351 | 21932 ft | 318 kts | 0° |
| 2026-05-05 15:01 | 20.93426 | -17.01999 | 21941 ft | 323 kts | 7° |
| 2026-05-05 15:01 | 20.95620 | -17.01435 | 21933 ft | 325 kts | 11° |
| 2026-05-05 15:02 | 20.97794 | -17.00759 | 21934 ft | 326 kts | 13° |
| 2026-05-05 15:02 | 20.99953 | -17.00022 | 21934 ft | 326 kts | 14° |
| 2026-05-05 15:02 | 21.02102 | -16.99253 | 21934 ft | 326 kts | 15° |
| 2026-05-05 15:02 | 21.04244 | -16.98465 | 21937 ft | 325 kts | 15° |
| 2026-05-05 15:03 | 21.06379 | -16.97666 | 21937 ft | 325 kts | 16° |
| 2026-05-05 15:03 | 21.08514 | -16.96858 | 21935 ft | 325 kts | 16° |
| 2026-05-05 15:03 | 21.10646 | -16.96047 | 21934 ft | 325 kts | 16° |
| 2026-05-05 15:03 | 21.12778 | -16.95232 | 21934 ft | 325 kts | 16° |
| 2026-05-05 15:04 | 21.14907 | -16.94415 | 21933 ft | 325 kts | 16° |
| 2026-05-05 15:04 | 21.17038 | -16.93596 | 21934 ft | 325 kts | 16° |
| 2026-05-05 15:04 | 21.19166 | -16.92776 | 21934 ft | 325 kts | 16° |
| 2026-05-05 15:04 | 21.21297 | -16.91954 | 21935 ft | 325 kts | 16° |
| 2026-05-05 15:05 | 21.25556 | -16.90308 | 21934 ft | 325 kts | 16° |
| 2026-05-05 15:05 | 21.27543 | -16.89539 | 21934 ft | 326 kts | 16° |
| 2026-05-05 15:05 | 21.29673 | -16.88715 | 21933 ft | 326 kts | 16° |
| 2026-05-05 15:06 | 21.31807 | -16.87888 | 21934 ft | 326 kts | 16° |
| 2026-05-05 15:06 | 21.33939 | -16.87061 | 21935 ft | 326 kts | 16° |
| 2026-05-05 15:06 | 21.36072 | -16.86234 | 21933 ft | 326 kts | 16° |
| 2026-05-05 15:06 | 21.38202 | -16.85407 | 21933 ft | 326 kts | 16° |
| 2026-05-05 15:07 | 21.40335 | -16.84578 | 21934 ft | 326 kts | 16° |
| 2026-05-05 15:07 | 21.42469 | -16.83750 | 21933 ft | 326 kts | 16° |
| 2026-05-05 15:07 | 21.44602 | -16.82921 | 21933 ft | 326 kts | 16° |
| 2026-05-05 15:07 | 21.46735 | -16.82092 | 21933 ft | 326 kts | 16° |
| 2026-05-05 15:08 | 21.48840 | -16.81274 | 21934 ft | 326 kts | 16° |
| 2026-05-05 15:08 | 21.50971 | -16.80445 | 21934 ft | 326 kts | 16° |
| 2026-05-05 15:08 | 21.53104 | -16.79615 | 21933 ft | 326 kts | 16° |
| 2026-05-05 15:08 | 21.55239 | -16.78784 | 21934 ft | 326 kts | 16° |
| 2026-05-05 15:09 | 21.57374 | -16.77953 | 21933 ft | 326 kts | 16° |
| 2026-05-05 15:09 | 21.59508 | -16.77122 | 21932 ft | 326 kts | 16° |
| 2026-05-05 15:09 | 21.61643 | -16.76290 | 21932 ft | 326 kts | 16° |
| 2026-05-05 15:09 | 21.63775 | -16.75459 | 21933 ft | 326 kts | 16° |
| 2026-05-05 15:10 | 21.65910 | -16.74627 | 21931 ft | 326 kts | 16° |
| 2026-05-05 15:10 | 21.68043 | -16.73795 | 21935 ft | 326 kts | 16° |
| 2026-05-05 15:10 | 21.70177 | -16.72962 | 21934 ft | 326 kts | 16° |
| 2026-05-05 15:10 | 21.72312 | -16.72129 | 21932 ft | 327 kts | 16° |
| 2026-05-05 15:11 | 21.74448 | -16.71296 | 21932 ft | 327 kts | 16° |
| 2026-05-05 15:11 | 21.76587 | -16.70461 | 21932 ft | 327 kts | 16° |
| 2026-05-05 15:11 | 21.78723 | -16.69627 | 21932 ft | 327 kts | 16° |
| 2026-05-05 15:11 | 21.80862 | -16.68791 | 21931 ft | 327 kts | 16° |
| 2026-05-05 15:12 | 21.82998 | -16.67956 | 21931 ft | 327 kts | 16° |
| 2026-05-05 15:12 | 21.85138 | -16.67119 | 21931 ft | 327 kts | 16° |
| 2026-05-05 15:12 | 21.87274 | -16.66284 | 21931 ft | 327 kts | 16° |
| 2026-05-05 15:12 | 21.89412 | -16.65448 | 21930 ft | 327 kts | 16° |
| 2026-05-05 15:13 | 21.91553 | -16.64610 | 21930 ft | 327 kts | 16° |
| 2026-05-05 15:13 | 21.93690 | -16.63773 | 21930 ft | 327 kts | 16° |
| 2026-05-05 15:13 | 21.95830 | -16.62935 | 21930 ft | 327 kts | 16° |
| 2026-05-05 15:13 | 21.97969 | -16.62097 | 21930 ft | 327 kts | 16° |
| 2026-05-05 15:14 | 22.00109 | -16.61259 | 21930 ft | 327 kts | 16° |
| 2026-05-05 15:14 | 22.02248 | -16.60420 | 21929 ft | 327 kts | 16° |
| 2026-05-05 15:14 | 22.04390 | -16.59580 | 21928 ft | 328 kts | 16° |
| 2026-05-05 15:14 | 22.06533 | -16.58740 | 21928 ft | 328 kts | 16° |
| 2026-05-05 15:15 | 22.08678 | -16.57899 | 21926 ft | 328 kts | 15° |
| 2026-05-05 15:15 | 22.10826 | -16.57056 | 21925 ft | 329 kts | 15° |
| 2026-05-05 15:15 | 22.12975 | -16.56212 | 21925 ft | 329 kts | 15° |
| 2026-05-05 15:15 | 22.15124 | -16.55368 | 21926 ft | 329 kts | 15° |
| 2026-05-05 15:16 | 22.17278 | -16.54522 | 21926 ft | 329 kts | 15° |
| 2026-05-05 15:16 | 22.19433 | -16.53675 | 21925 ft | 330 kts | 16° |
| 2026-05-05 15:16 | 22.21587 | -16.52828 | 21924 ft | 330 kts | 16° |
| 2026-05-05 15:16 | 22.23746 | -16.51980 | 21924 ft | 330 kts | 16° |
| 2026-05-05 15:17 | 22.25875 | -16.51142 | 21924 ft | 330 kts | 16° |
| 2026-05-05 15:17 | 22.28035 | -16.50292 | 21923 ft | 330 kts | 16° |
| 2026-05-05 15:17 | 22.30195 | -16.49442 | 21922 ft | 331 kts | 16° |
| 2026-05-05 15:17 | 22.32358 | -16.48590 | 21923 ft | 331 kts | 16° |
| 2026-05-05 15:18 | 22.34520 | -16.47739 | 21923 ft | 331 kts | 16° |
| 2026-05-05 15:18 | 22.36685 | -16.46886 | 21922 ft | 331 kts | 16° |
| 2026-05-05 15:18 | 22.38847 | -16.46034 | 21921 ft | 331 kts | 16° |
| 2026-05-05 15:18 | 22.41011 | -16.45181 | 21921 ft | 331 kts | 16° |
| 2026-05-05 15:19 | 22.43176 | -16.44326 | 21919 ft | 331 kts | 15° |
| 2026-05-05 15:19 | 22.45340 | -16.43472 | 21919 ft | 331 kts | 15° |
| 2026-05-05 15:19 | 22.47505 | -16.42618 | 21919 ft | 332 kts | 15° |
| 2026-05-05 15:19 | 22.49673 | -16.41762 | 21919 ft | 332 kts | 15° |
| 2026-05-05 15:20 | 22.51842 | -16.40906 | 21919 ft | 332 kts | 15° |
| 2026-05-05 15:20 | 22.54010 | -16.40049 | 21919 ft | 332 kts | 15° |
| 2026-05-05 15:20 | 22.56178 | -16.39192 | 21918 ft | 332 kts | 15° |
| 2026-05-05 15:20 | 22.58348 | -16.38335 | 21917 ft | 332 kts | 15° |
| 2026-05-05 15:21 | 22.60518 | -16.37477 | 21918 ft | 332 kts | 15° |
| 2026-05-05 15:21 | 22.62686 | -16.36619 | 21918 ft | 332 kts | 15° |
| 2026-05-05 15:21 | 22.64858 | -16.35759 | 21916 ft | 332 kts | 15° |
| 2026-05-05 15:21 | 22.67027 | -16.34901 | 21916 ft | 332 kts | 15° |
| 2026-05-05 15:22 | 22.69199 | -16.34040 | 21916 ft | 333 kts | 15° |
| 2026-05-05 15:22 | 22.71374 | -16.33179 | 21916 ft | 333 kts | 15° |
| 2026-05-05 15:22 | 22.73548 | -16.32317 | 21911 ft | 333 kts | 15° |
| 2026-05-05 15:22 | 22.75722 | -16.31456 | 21913 ft | 333 kts | 15° |
| 2026-05-05 15:23 | 22.77895 | -16.30594 | 21914 ft | 333 kts | 15° |
| 2026-05-05 15:23 | 22.80072 | -16.29730 | 21914 ft | 333 kts | 15° |
| 2026-05-05 15:23 | 22.82246 | -16.28868 | 21913 ft | 333 kts | 15° |
| 2026-05-05 15:23 | 22.84421 | -16.28004 | 21913 ft | 333 kts | 15° |
| 2026-05-05 15:24 | 22.86598 | -16.27140 | 21913 ft | 333 kts | 15° |
| 2026-05-05 15:24 | 22.88775 | -16.26275 | 21912 ft | 333 kts | 15° |
| 2026-05-05 15:24 | 22.90951 | -16.25411 | 21912 ft | 333 kts | 15° |
| 2026-05-05 15:24 | 22.93128 | -16.24546 | 21912 ft | 333 kts | 15° |
| 2026-05-05 15:25 | 22.95278 | -16.23691 | 21912 ft | 334 kts | 15° |
| 2026-05-05 15:25 | 22.97456 | -16.22824 | 21911 ft | 334 kts | 15° |
| 2026-05-05 15:25 | 22.99637 | -16.21956 | 21908 ft | 334 kts | 15° |
| 2026-05-05 15:25 | 23.01820 | -16.21088 | 21910 ft | 334 kts | 15° |
| 2026-05-05 15:26 | 23.03998 | -16.20220 | 21910 ft | 334 kts | 15° |
| 2026-05-05 15:26 | 23.06179 | -16.19352 | 21909 ft | 334 kts | 15° |
| 2026-05-05 15:26 | 23.08363 | -16.18482 | 21909 ft | 334 kts | 15° |
| 2026-05-05 15:26 | 23.10546 | -16.17611 | 21910 ft | 334 kts | 15° |
| 2026-05-05 15:27 | 23.12728 | -16.16741 | 21909 ft | 334 kts | 15° |
| 2026-05-05 15:27 | 23.14912 | -16.15870 | 21908 ft | 334 kts | 15° |
| 2026-05-05 15:27 | 23.17097 | -16.14998 | 21908 ft | 334 kts | 15° |
| 2026-05-05 15:27 | 23.19281 | -16.14126 | 21908 ft | 334 kts | 15° |
| 2026-05-05 15:28 | 23.21467 | -16.13254 | 21908 ft | 335 kts | 15° |
| 2026-05-05 15:28 | 23.23651 | -16.12381 | 21907 ft | 335 kts | 15° |
| 2026-05-05 15:28 | 23.25836 | -16.11508 | 21907 ft | 335 kts | 15° |
| 2026-05-05 15:28 | 23.27284 | -16.10929 | 21907 ft | 335 kts | 15° |
| 2026-05-05 15:29 | 23.29469 | -16.10056 | 21906 ft | 335 kts | 15° |
| 2026-05-05 15:29 | 23.31657 | -16.09181 | 21906 ft | 335 kts | 15° |
| 2026-05-05 15:29 | 23.33844 | -16.08306 | 21907 ft | 335 kts | 15° |
| 2026-05-05 15:29 | 23.36033 | -16.07430 | 21905 ft | 335 kts | 15° |
| 2026-05-05 15:30 | 23.38961 | -16.06258 | 21905 ft | 335 kts | 15° |
| 2026-05-05 15:30 | 23.40410 | -16.05677 | 21905 ft | 335 kts | 15° |
| 2026-05-05 15:30 | 23.42600 | -16.04799 | 21904 ft | 335 kts | 15° |
| 2026-05-05 15:30 | 23.44791 | -16.03921 | 21905 ft | 336 kts | 15° |
| 2026-05-05 15:31 | 23.46984 | -16.03042 | 21905 ft | 336 kts | 15° |
| 2026-05-05 15:31 | 23.49104 | -16.02192 | 21905 ft | 336 kts | 15° |
| 2026-05-05 15:31 | 23.51371 | -16.01283 | 21904 ft | 336 kts | 15° |
| 2026-05-05 15:31 | 23.53565 | -16.00402 | 21904 ft | 336 kts | 15° |
| 2026-05-05 15:32 | 23.55760 | -15.99520 | 21904 ft | 336 kts | 15° |
| 2026-05-05 15:32 | 23.57955 | -15.98639 | 21905 ft | 336 kts | 15° |
| 2026-05-05 15:32 | 23.60147 | -15.97758 | 21904 ft | 336 kts | 15° |
| 2026-05-05 15:32 | 23.62341 | -15.96876 | 21904 ft | 336 kts | 15° |
| 2026-05-05 15:33 | 23.64536 | -15.95993 | 21905 ft | 336 kts | 15° |
| 2026-05-05 15:33 | 23.66728 | -15.95110 | 21905 ft | 336 kts | 15° |
| 2026-05-05 15:33 | 23.68922 | -15.94227 | 21905 ft | 336 kts | 15° |
| 2026-05-05 15:33 | 23.71122 | -15.93371 | 21903 ft | 334 kts | 12° |
| 2026-05-05 15:34 | 23.73362 | -15.92731 | 21906 ft | 331 kts | 6° |
| 2026-05-05 15:34 | 23.75619 | -15.92251 | 21906 ft | 330 kts | 3° |
| 2026-05-05 15:34 | 23.77881 | -15.91860 | 21906 ft | 329 kts | 1° |
| 2026-05-05 15:34 | 23.80143 | -15.91517 | 21905 ft | 328 kts | 0° |
| 2026-05-05 15:35 | 23.82409 | -15.91203 | 21904 ft | 328 kts | 360° |
| 2026-05-05 15:35 | 23.84675 | -15.90906 | 21905 ft | 328 kts | 360° |
| 2026-05-05 15:35 | 23.86941 | -15.90619 | 21904 ft | 328 kts | 359° |
| 2026-05-05 15:35 | 23.89206 | -15.90339 | 21905 ft | 328 kts | 359° |
| 2026-05-05 15:36 | 23.91473 | -15.90063 | 21905 ft | 328 kts | 359° |
| 2026-05-05 15:36 | 23.93736 | -15.89791 | 21905 ft | 328 kts | 359° |
| 2026-05-05 15:36 | 23.95971 | -15.89525 | 21907 ft | 328 kts | 359° |
| 2026-05-05 15:36 | 23.98238 | -15.89257 | 21906 ft | 328 kts | 359° |
| 2026-05-05 15:37 | 24.00504 | -15.88990 | 21905 ft | 328 kts | 359° |
| 2026-05-05 15:37 | 24.02772 | -15.88724 | 21906 ft | 328 kts | 359° |
| 2026-05-05 15:37 | 24.05040 | -15.88458 | 21907 ft | 328 kts | 359° |
| 2026-05-05 15:37 | 24.07306 | -15.88193 | 21908 ft | 328 kts | 359° |
| 2026-05-05 15:38 | 24.09573 | -15.87929 | 21907 ft | 328 kts | 359° |
| 2026-05-05 15:38 | 24.11838 | -15.87664 | 21907 ft | 328 kts | 359° |
| 2026-05-05 15:38 | 24.14106 | -15.87400 | 21907 ft | 328 kts | 359° |
| 2026-05-05 15:38 | 24.16373 | -15.87136 | 21907 ft | 328 kts | 359° |
| 2026-05-05 15:39 | 24.18638 | -15.86872 | 21908 ft | 328 kts | 359° |
| 2026-05-05 15:39 | 24.20906 | -15.86608 | 21909 ft | 328 kts | 359° |
| 2026-05-05 15:39 | 24.23171 | -15.86345 | 21909 ft | 328 kts | 359° |
| 2026-05-05 15:39 | 24.25439 | -15.86081 | 21909 ft | 328 kts | 359° |
| 2026-05-05 15:40 | 24.27705 | -15.85817 | 21910 ft | 328 kts | 359° |
| 2026-05-05 15:40 | 24.29974 | -15.85552 | 21910 ft | 328 kts | 359° |
| 2026-05-05 15:40 | 24.32240 | -15.85288 | 21910 ft | 328 kts | 359° |
| 2026-05-05 15:40 | 24.34508 | -15.85024 | 21911 ft | 328 kts | 359° |
| 2026-05-05 15:41 | 24.36776 | -15.84760 | 21912 ft | 328 kts | 359° |
| 2026-05-05 15:41 | 24.39045 | -15.84495 | 21912 ft | 328 kts | 359° |
| 2026-05-05 15:41 | 24.41312 | -15.84231 | 21914 ft | 328 kts | 359° |
| 2026-05-05 15:41 | 24.43581 | -15.83966 | 21915 ft | 328 kts | 359° |
| 2026-05-05 15:42 | 24.45850 | -15.83701 | 21915 ft | 328 kts | 359° |
| 2026-05-05 15:42 | 24.48089 | -15.83440 | 21915 ft | 328 kts | 359° |
| 2026-05-05 15:42 | 24.50358 | -15.83175 | 21916 ft | 328 kts | 359° |
| 2026-05-05 15:42 | 24.52629 | -15.82909 | 21916 ft | 328 kts | 359° |
| 2026-05-05 15:43 | 24.54900 | -15.82644 | 21916 ft | 328 kts | 359° |
| 2026-05-05 15:43 | 24.57173 | -15.82378 | 21918 ft | 328 kts | 359° |
| 2026-05-05 15:43 | 24.59444 | -15.82113 | 21917 ft | 328 kts | 359° |
| 2026-05-05 15:43 | 24.61716 | -15.81847 | 21919 ft | 329 kts | 359° |
| 2026-05-05 15:44 | 24.63991 | -15.81581 | 21911 ft | 329 kts | 359° |
| 2026-05-05 15:44 | 24.66270 | -15.81314 | 21914 ft | 329 kts | 359° |
| 2026-05-05 15:44 | 24.68545 | -15.81048 | 21920 ft | 329 kts | 359° |
| 2026-05-05 15:44 | 24.70823 | -15.80781 | 21921 ft | 329 kts | 359° |
| 2026-05-05 15:45 | 24.73103 | -15.80512 | 21921 ft | 329 kts | 359° |
| 2026-05-05 15:45 | 24.75378 | -15.80244 | 21929 ft | 329 kts | 358° |
| 2026-05-05 15:45 | 24.77659 | -15.79976 | 21928 ft | 329 kts | 358° |
| 2026-05-05 15:45 | 24.79938 | -15.79709 | 21927 ft | 330 kts | 358° |
| 2026-05-05 15:46 | 24.82219 | -15.79441 | 21928 ft | 330 kts | 358° |
| 2026-05-05 15:46 | 24.84502 | -15.79173 | 21930 ft | 330 kts | 358° |
| 2026-05-05 15:46 | 24.86786 | -15.78905 | 21931 ft | 330 kts | 358° |
| 2026-05-05 15:46 | 24.89073 | -15.78637 | 21931 ft | 330 kts | 358° |
| 2026-05-05 15:47 | 24.91326 | -15.78372 | 21933 ft | 330 kts | 358° |
| 2026-05-05 15:47 | 24.92872 | -15.78191 | 21933 ft | 331 kts | 358° |
| 2026-05-05 15:47 | 24.95901 | -15.77834 | 21936 ft | 331 kts | 358° |
| 2026-05-05 15:47 | 24.98191 | -15.77565 | 21937 ft | 331 kts | 358° |
| 2026-05-05 15:48 | 25.00479 | -15.77296 | 21937 ft | 331 kts | 358° |
| 2026-05-05 15:48 | 25.02771 | -15.77029 | 21938 ft | 331 kts | 358° |
| 2026-05-05 15:48 | 25.05092 | -15.76775 | 21941 ft | 331 kts | 357° |
| 2026-05-05 15:48 | 25.07353 | -15.76532 | 21941 ft | 331 kts | 357° |
| 2026-05-05 15:49 | 25.09678 | -15.76232 | 21941 ft | 335 kts | 2° |
| 2026-05-05 15:49 | 25.11931 | -15.75656 | 21944 ft | 339 kts | 8° |
| 2026-05-05 15:49 | 25.14196 | -15.74912 | 21947 ft | 341 kts | 11° |
| 2026-05-05 15:49 | 25.16453 | -15.74100 | 21941 ft | 342 kts | 12° |
| 2026-05-05 15:50 | 25.18706 | -15.73259 | 21944 ft | 342 kts | 12° |
| 2026-05-05 15:50 | 25.20957 | -15.72404 | 21948 ft | 342 kts | 12° |
| 2026-05-05 15:50 | 25.23208 | -15.71542 | 21949 ft | 342 kts | 13° |
| 2026-05-05 15:50 | 25.25456 | -15.70676 | 21951 ft | 343 kts | 13° |
| 2026-05-05 15:51 | 25.27708 | -15.69804 | 21952 ft | 343 kts | 13° |
| 2026-05-05 15:51 | 25.29957 | -15.68930 | 21953 ft | 343 kts | 13° |
| 2026-05-05 15:51 | 25.32209 | -15.68052 | 21954 ft | 343 kts | 13° |
| 2026-05-05 15:51 | 25.34462 | -15.67170 | 21956 ft | 343 kts | 13° |
| 2026-05-05 15:52 | 25.36716 | -15.66285 | 21957 ft | 344 kts | 13° |
| 2026-05-05 15:52 | 25.38966 | -15.65397 | 21964 ft | 344 kts | 13° |
| 2026-05-05 15:52 | 25.41218 | -15.64505 | 21963 ft | 344 kts | 13° |
| 2026-05-05 15:52 | 25.43472 | -15.63610 | 21962 ft | 344 kts | 13° |
| 2026-05-05 15:53 | 25.45725 | -15.62712 | 21963 ft | 345 kts | 13° |
| 2026-05-05 15:53 | 25.47981 | -15.61810 | 21965 ft | 345 kts | 13° |
| 2026-05-05 15:53 | 25.50234 | -15.60905 | 21968 ft | 345 kts | 13° |
| 2026-05-05 15:53 | 25.52491 | -15.59996 | 21968 ft | 345 kts | 13° |
| 2026-05-05 15:54 | 25.54748 | -15.59083 | 21969 ft | 345 kts | 13° |
| 2026-05-05 15:54 | 25.57004 | -15.58167 | 21972 ft | 345 kts | 13° |
| 2026-05-05 15:54 | 25.59259 | -15.57248 | 21972 ft | 346 kts | 13° |
| 2026-05-05 15:54 | 25.61517 | -15.56325 | 21973 ft | 346 kts | 14° |
| 2026-05-05 15:55 | 25.63773 | -15.55399 | 21974 ft | 346 kts | 14° |
| 2026-05-05 15:55 | 25.66028 | -15.54471 | 21975 ft | 346 kts | 14° |
| 2026-05-05 15:55 | 25.68286 | -15.53538 | 21976 ft | 346 kts | 14° |
| 2026-05-05 15:55 | 25.70542 | -15.52602 | 21978 ft | 346 kts | 14° |
| 2026-05-05 15:56 | 25.72798 | -15.51662 | 21979 ft | 346 kts | 14° |
| 2026-05-05 15:56 | 25.75053 | -15.50720 | 21980 ft | 347 kts | 14° |
| 2026-05-05 15:56 | 25.77311 | -15.49773 | 21978 ft | 347 kts | 14° |
| 2026-05-05 15:56 | 25.79565 | -15.48824 | 21981 ft | 347 kts | 14° |
| 2026-05-05 15:57 | 25.81818 | -15.47872 | 21983 ft | 347 kts | 14° |
| 2026-05-05 15:57 | 25.84072 | -15.46916 | 21985 ft | 347 kts | 14° |
| 2026-05-05 15:57 | 25.86326 | -15.45957 | 21986 ft | 347 kts | 14° |
| 2026-05-05 15:57 | 25.88577 | -15.44995 | 21987 ft | 347 kts | 14° |
| 2026-05-05 15:58 | 25.90828 | -15.44029 | 21988 ft | 347 kts | 15° |
| 2026-05-05 15:58 | 25.93081 | -15.43059 | 21989 ft | 347 kts | 15° |
| 2026-05-05 15:58 | 25.95331 | -15.42087 | 21990 ft | 347 kts | 15° |
| 2026-05-05 15:58 | 25.97580 | -15.41112 | 21990 ft | 347 kts | 15° |
| 2026-05-05 15:59 | 25.99830 | -15.40133 | 21992 ft | 347 kts | 15° |
| 2026-05-05 15:59 | 26.02080 | -15.39150 | 21994 ft | 347 kts | 15° |
| 2026-05-05 15:59 | 26.04328 | -15.38164 | 21995 ft | 348 kts | 15° |
| 2026-05-05 15:59 | 26.06579 | -15.37174 | 21995 ft | 348 kts | 15° |
| 2026-05-05 16:00 | 26.08827 | -15.36181 | 21990 ft | 348 kts | 15° |
| 2026-05-05 16:00 | 26.11079 | -15.35183 | 21977 ft | 349 kts | 15° |
| 2026-05-05 16:00 | 26.13333 | -15.34180 | 21974 ft | 349 kts | 15° |
| 2026-05-05 16:00 | 26.15585 | -15.33174 | 21975 ft | 349 kts | 15° |
| 2026-05-05 16:01 | 26.17838 | -15.32164 | 21975 ft | 349 kts | 15° |
| 2026-05-05 16:01 | 26.20059 | -15.31165 | 21975 ft | 349 kts | 15° |
| 2026-05-05 16:01 | 26.22336 | -15.30136 | 21974 ft | 349 kts | 15° |
| 2026-05-05 16:01 | 26.24584 | -15.29117 | 21976 ft | 349 kts | 15° |
| 2026-05-05 16:02 | 26.26831 | -15.28094 | 21977 ft | 349 kts | 15° |
| 2026-05-05 16:02 | 26.29075 | -15.27069 | 21977 ft | 349 kts | 15° |
| 2026-05-05 16:02 | 26.31288 | -15.26054 | 21979 ft | 349 kts | 15° |
| 2026-05-05 16:02 | 26.33531 | -15.25022 | 21980 ft | 349 kts | 15° |
| 2026-05-05 16:03 | 26.35803 | -15.23973 | 21981 ft | 349 kts | 16° |
| 2026-05-05 16:03 | 26.38012 | -15.22949 | 21981 ft | 349 kts | 16° |
| 2026-05-05 16:03 | 26.40253 | -15.21906 | 21982 ft | 349 kts | 16° |
| 2026-05-05 16:03 | 26.42488 | -15.20861 | 21986 ft | 349 kts | 16° |
| 2026-05-05 16:04 | 26.44723 | -15.19813 | 21984 ft | 349 kts | 16° |
| 2026-05-05 16:04 | 26.46960 | -15.18760 | 21984 ft | 349 kts | 16° |
| 2026-05-05 16:04 | 26.49193 | -15.17705 | 21986 ft | 349 kts | 16° |
| 2026-05-05 16:04 | 26.51429 | -15.16644 | 21987 ft | 349 kts | 16° |
| 2026-05-05 16:05 | 26.53661 | -15.15582 | 21986 ft | 349 kts | 16° |
| 2026-05-05 16:05 | 26.55892 | -15.14515 | 21986 ft | 349 kts | 16° |
| 2026-05-05 16:05 | 26.58123 | -15.13445 | 21987 ft | 349 kts | 17° |
| 2026-05-05 16:05 | 26.60350 | -15.12373 | 21988 ft | 349 kts | 17° |
| 2026-05-05 16:06 | 26.62578 | -15.11296 | 21989 ft | 349 kts | 17° |
| 2026-05-05 16:06 | 26.64803 | -15.10216 | 21993 ft | 349 kts | 17° |
| 2026-05-05 16:06 | 26.67025 | -15.09134 | 21989 ft | 349 kts | 17° |
| 2026-05-05 16:06 | 26.69249 | -15.08047 | 21989 ft | 349 kts | 17° |
| 2026-05-05 16:07 | 26.71471 | -15.06956 | 21990 ft | 349 kts | 17° |
| 2026-05-05 16:07 | 26.73693 | -15.05862 | 21989 ft | 349 kts | 17° |
| 2026-05-05 16:07 | 26.75914 | -15.04763 | 21987 ft | 349 kts | 17° |
| 2026-05-05 16:07 | 26.78135 | -15.03661 | 21989 ft | 349 kts | 17° |
| 2026-05-05 16:08 | 26.80356 | -15.02554 | 21991 ft | 349 kts | 17° |
| 2026-05-05 16:08 | 26.82573 | -15.01445 | 21993 ft | 349 kts | 17° |
| 2026-05-05 16:08 | 26.84791 | -15.00331 | 21993 ft | 349 kts | 17° |
| 2026-05-05 16:08 | 26.87006 | -14.99214 | 21998 ft | 349 kts | 17° |
| 2026-05-05 16:09 | 26.89220 | -14.98094 | 21996 ft | 349 kts | 17° |
| 2026-05-05 16:09 | 26.91437 | -14.96969 | 21996 ft | 349 kts | 18° |
| 2026-05-05 16:09 | 26.93649 | -14.95841 | 21996 ft | 349 kts | 18° |
| 2026-05-05 16:09 | 26.95861 | -14.94709 | 21997 ft | 349 kts | 18° |
| 2026-05-05 16:10 | 26.98070 | -14.93574 | 21997 ft | 349 kts | 18° |
| 2026-05-05 16:10 | 27.00279 | -14.92434 | 22003 ft | 349 kts | 18° |
| 2026-05-05 16:10 | 27.02486 | -14.91291 | 22001 ft | 350 kts | 18° |
| 2026-05-05 16:10 | 27.04663 | -14.90159 | 21999 ft | 350 kts | 18° |
| 2026-05-05 16:11 | 27.06899 | -14.88992 | 22005 ft | 350 kts | 18° |
| 2026-05-05 16:11 | 27.13482 | -14.85530 | 22005 ft | 350 kts | 18° |
| 2026-05-05 16:12 | 27.15713 | -14.84347 | 22013 ft | 350 kts | 18° |
| 2026-05-05 16:12 | 27.20079 | -14.82019 | 22009 ft | 350 kts | 18° |
| 2026-05-05 16:13 | 27.26673 | -14.78470 | 22007 ft | 351 kts | 19° |
| 2026-05-05 16:13 | 27.28870 | -14.77278 | 22007 ft | 351 kts | 19° |
| 2026-05-05 16:13 | 27.31068 | -14.76080 | 22006 ft | 351 kts | 19° |
| 2026-05-05 16:14 | 27.35391 | -14.73495 | 22007 ft | 356 kts | 27° |
| 2026-05-05 16:14 | 27.39464 | -14.70296 | 22009 ft | 358 kts | 31° |
| 2026-05-05 16:15 | 27.43520 | -14.67053 | 22009 ft | 357 kts | 29° |
| 2026-05-05 16:15 | 27.47647 | -14.63940 | 22008 ft | 357 kts | 27° |
| 2026-05-05 16:16 | 27.51861 | -14.61010 | 22008 ft | 355 kts | 24° |
| 2026-05-05 16:16 | 27.55429 | -14.58722 | 22009 ft | 354 kts | 22° |
| 2026-05-05 16:17 | 27.59780 | -14.56127 | 22009 ft | 353 kts | 20° |
| 2026-05-05 16:17 | 27.61973 | -14.54875 | 22009 ft | 353 kts | 19° |
| 2026-05-05 16:18 | 27.66370 | -14.52425 | 22015 ft | 352 kts | 19° |
| 2026-05-05 16:18 | 27.68571 | -14.51205 | 22011 ft | 353 kts | 19° |
| 2026-05-05 16:18 | 27.72966 | -14.48735 | 22010 ft | 353 kts | 19° |
| 2026-05-05 16:19 | 27.75156 | -14.47465 | 22010 ft | 354 kts | 20° |
| 2026-05-05 16:19 | 27.77335 | -14.46164 | 22020 ft | 354 kts | 21° |
| 2026-05-05 16:19 | 27.81633 | -14.43457 | 22152 ft | 353 kts | 23° |
| 2026-05-05 16:20 | 27.85842 | -14.40611 | 22299 ft | 352 kts | 25° |
| 2026-05-05 16:20 | 27.89967 | -14.37642 | 22449 ft | 350 kts | 26° |
| 2026-05-05 16:21 | 27.94020 | -14.34606 | 22598 ft | 348 kts | 27° |
| 2026-05-05 16:22 | 28.00002 | -14.30085 | 22820 ft | 344 kts | 27° |
| 2026-05-05 16:22 | 28.04005 | -14.27142 | 22970 ft | 341 kts | 25° |
| 2026-05-05 16:23 | 28.08022 | -14.24319 | 23117 ft | 338 kts | 24° |
| 2026-05-05 16:23 | 28.10039 | -14.22957 | 23191 ft | 336 kts | 23° |
| 2026-05-05 16:23 | 28.14077 | -14.20330 | 23338 ft | 333 kts | 21° |
| 2026-05-05 16:24 | 28.16098 | -14.19053 | 23410 ft | 332 kts | 21° |
| 2026-05-05 16:24 | 28.18114 | -14.17796 | 23484 ft | 330 kts | 20° |
| 2026-05-05 16:24 | 28.22134 | -14.15300 | 23632 ft | 328 kts | 20° |
| 2026-05-05 16:25 | 28.24131 | -14.14054 | 23705 ft | 327 kts | 21° |
| 2026-05-05 16:25 | 28.28086 | -14.11543 | 23867 ft | 325 kts | 21° |
| 2026-05-05 16:25 | 28.30045 | -14.10266 | 23932 ft | 324 kts | 22° |
| 2026-05-05 16:26 | 28.33928 | -14.07668 | 24018 ft | 325 kts | 23° |
| 2026-05-05 16:26 | 28.37825 | -14.04990 | 24025 ft | 329 kts | 24° |
| 2026-05-05 16:27 | 28.39781 | -14.03627 | 24029 ft | 331 kts | 24° |
| 2026-05-05 16:27 | 28.41744 | -14.02246 | 24030 ft | 333 kts | 24° |
| 2026-05-05 16:27 | 28.43716 | -14.00852 | 24036 ft | 335 kts | 24° |
| 2026-05-05 16:27 | 28.45700 | -13.99451 | 24016 ft | 337 kts | 24° |
| 2026-05-05 16:28 | 28.47699 | -13.98048 | 24022 ft | 338 kts | 24° |
| 2026-05-05 16:28 | 28.49710 | -13.96655 | 24035 ft | 339 kts | 24° |
| 2026-05-05 16:28 | 28.51730 | -13.95264 | 24033 ft | 341 kts | 24° |
| 2026-05-05 16:28 | 28.53767 | -13.93871 | 24020 ft | 342 kts | 23° |
| 2026-05-05 16:29 | 28.55815 | -13.92481 | 24022 ft | 343 kts | 23° |
| 2026-05-05 16:29 | 28.57871 | -13.91096 | 24022 ft | 344 kts | 23° |
| 2026-05-05 16:29 | 28.59937 | -13.89711 | 24018 ft | 344 kts | 23° |
| 2026-05-05 16:29 | 28.62004 | -13.88336 | 24013 ft | 344 kts | 22° |
| 2026-05-05 16:30 | 28.64075 | -13.86960 | 24010 ft | 345 kts | 22° |
| 2026-05-05 16:30 | 28.66142 | -13.85580 | 24016 ft | 345 kts | 23° |
| 2026-05-05 16:30 | 28.68209 | -13.84196 | 24020 ft | 345 kts | 23° |
| 2026-05-05 16:30 | 28.70307 | -13.82900 | 24024 ft | 342 kts | 18° |
| 2026-05-05 16:31 | 28.72375 | -13.81617 | 24022 ft | 345 kts | 22° |
| 2026-05-05 16:31 | 28.74426 | -13.80193 | 24022 ft | 346 kts | 25° |
| 2026-05-05 16:31 | 28.76453 | -13.78703 | 24022 ft | 347 kts | 26° |
| 2026-05-05 16:31 | 28.78473 | -13.77192 | 24023 ft | 347 kts | 26° |
| 2026-05-05 16:32 | 28.80497 | -13.75691 | 24022 ft | 347 kts | 26° |
| 2026-05-05 16:32 | 28.82534 | -13.74224 | 24022 ft | 346 kts | 25° |
| 2026-05-05 16:32 | 28.84591 | -13.72796 | 24023 ft | 346 kts | 23° |
| 2026-05-05 16:32 | 28.86660 | -13.71406 | 24023 ft | 345 kts | 22° |
| 2026-05-05 16:33 | 28.88740 | -13.70046 | 24022 ft | 345 kts | 22° |
| 2026-05-05 16:33 | 28.90826 | -13.68696 | 24022 ft | 345 kts | 22° |
| 2026-05-05 16:33 | 28.92909 | -13.67339 | 24023 ft | 345 kts | 22° |
| 2026-05-05 16:33 | 28.94984 | -13.65960 | 24023 ft | 345 kts | 23° |
| 2026-05-05 16:34 | 28.97046 | -13.64552 | 24022 ft | 346 kts | 24° |
| 2026-05-05 16:34 | 28.99099 | -13.63118 | 24022 ft | 346 kts | 24° |
| 2026-05-05 16:34 | 29.01146 | -13.61673 | 24022 ft | 346 kts | 24° |
| 2026-05-05 16:34 | 29.03208 | -13.60254 | 24024 ft | 344 kts | 22° |
| 2026-05-05 16:35 | 29.05310 | -13.58956 | 24028 ft | 342 kts | 19° |
| 2026-05-05 16:35 | 29.07428 | -13.57716 | 24037 ft | 342 kts | 19° |
| 2026-05-05 16:35 | 29.09525 | -13.56426 | 24031 ft | 344 kts | 22° |
| 2026-05-05 16:35 | 29.11571 | -13.54987 | 24034 ft | 347 kts | 26° |
| 2026-05-05 16:36 | 29.13547 | -13.53389 | 24035 ft | 349 kts | 31° |
| 2026-05-05 16:36 | 29.15444 | -13.51645 | 24026 ft | 351 kts | 35° |
| 2026-05-05 16:36 | 29.17268 | -13.49771 | 24010 ft | 353 kts | 39° |
| 2026-05-05 16:36 | 29.19025 | -13.47796 | 24004 ft | 355 kts | 41° |
| 2026-05-05 16:37 | 29.20722 | -13.45741 | 24007 ft | 355 kts | 44° |
| 2026-05-05 16:37 | 29.22367 | -13.43628 | 24011 ft | 356 kts | 46° |
| 2026-05-05 16:37 | 29.23968 | -13.41465 | 24017 ft | 356 kts | 47° |
| 2026-05-05 16:37 | 29.25531 | -13.39267 | 24019 ft | 356 kts | 49° |
| 2026-05-05 16:38 | 29.27065 | -13.37039 | 24020 ft | 356 kts | 50° |
| 2026-05-05 16:38 | 29.28554 | -13.34821 | 24021 ft | 356 kts | 50° |
| 2026-05-05 16:38 | 29.30066 | -13.32522 | 24019 ft | 356 kts | 51° |
| 2026-05-05 16:38 | 29.31542 | -13.30241 | 24019 ft | 356 kts | 51° |
| 2026-05-05 16:39 | 29.32986 | -13.27979 | 24020 ft | 356 kts | 52° |
| 2026-05-05 16:39 | 29.34439 | -13.25680 | 24019 ft | 356 kts | 52° |
| 2026-05-05 16:39 | 29.35885 | -13.23372 | 24018 ft | 356 kts | 52° |
| 2026-05-05 16:39 | 29.37324 | -13.21059 | 24018 ft | 356 kts | 53° |
| 2026-05-05 16:40 | 29.38759 | -13.18741 | 24015 ft | 356 kts | 53° |
| 2026-05-05 16:40 | 29.40190 | -13.16419 | 23997 ft | 357 kts | 53° |
| 2026-05-05 16:40 | 29.41620 | -13.14091 | 23989 ft | 357 kts | 53° |
| 2026-05-05 16:40 | 29.43048 | -13.11760 | 23985 ft | 357 kts | 53° |
| 2026-05-05 16:41 | 29.44476 | -13.09425 | 23985 ft | 357 kts | 53° |
| 2026-05-05 16:41 | 29.45900 | -13.07090 | 23984 ft | 357 kts | 53° |
| 2026-05-05 16:41 | 29.47323 | -13.04752 | 23983 ft | 357 kts | 53° |
| 2026-05-05 16:41 | 29.48744 | -13.02412 | 23983 ft | 357 kts | 53° |
| 2026-05-05 16:42 | 29.50162 | -13.00075 | 23982 ft | 357 kts | 53° |
| 2026-05-05 16:42 | 29.51581 | -12.97733 | 23980 ft | 357 kts | 53° |
| 2026-05-05 16:42 | 29.52997 | -12.95393 | 23980 ft | 357 kts | 53° |
| 2026-05-05 16:42 | 29.54413 | -12.93050 | 23980 ft | 357 kts | 53° |
| 2026-05-05 16:43 | 29.55826 | -12.90710 | 23978 ft | 357 kts | 53° |
| 2026-05-05 16:43 | 29.57240 | -12.88367 | 23977 ft | 357 kts | 53° |
| 2026-05-05 16:43 | 29.58654 | -12.86022 | 23978 ft | 357 kts | 53° |
| 2026-05-05 16:43 | 29.60066 | -12.83678 | 23977 ft | 357 kts | 53° |
| 2026-05-05 16:44 | 29.61477 | -12.81333 | 23976 ft | 357 kts | 53° |
| 2026-05-05 16:44 | 29.62887 | -12.78989 | 23976 ft | 357 kts | 53° |
| 2026-05-05 16:44 | 29.64297 | -12.76643 | 23974 ft | 357 kts | 53° |
| 2026-05-05 16:44 | 29.65707 | -12.74297 | 23973 ft | 357 kts | 53° |
| 2026-05-05 16:45 | 29.67116 | -12.71950 | 23973 ft | 356 kts | 53° |
| 2026-05-05 16:45 | 29.68523 | -12.69606 | 23971 ft | 356 kts | 53° |
| 2026-05-05 16:45 | 29.69930 | -12.67260 | 23970 ft | 356 kts | 53° |
| 2026-05-05 16:45 | 29.71335 | -12.64914 | 23970 ft | 356 kts | 53° |
| 2026-05-05 16:46 | 29.72741 | -12.62567 | 23969 ft | 356 kts | 53° |
| 2026-05-05 16:46 | 29.74129 | -12.60247 | 23967 ft | 356 kts | 53° |
| 2026-05-05 16:46 | 29.75534 | -12.57899 | 23967 ft | 356 kts | 53° |
| 2026-05-05 16:46 | 29.76937 | -12.55553 | 23967 ft | 356 kts | 53° |
| 2026-05-05 16:47 | 29.78341 | -12.53203 | 23965 ft | 356 kts | 53° |
| 2026-05-05 16:47 | 29.79743 | -12.50855 | 23965 ft | 356 kts | 53° |
| 2026-05-05 16:47 | 29.81144 | -12.48507 | 23964 ft | 356 kts | 53° |
| 2026-05-05 16:47 | 29.82547 | -12.46154 | 23963 ft | 356 kts | 53° |
| 2026-05-05 16:48 | 29.83947 | -12.43806 | 23962 ft | 356 kts | 53° |
| 2026-05-05 16:48 | 29.85349 | -12.41454 | 23962 ft | 356 kts | 54° |
| 2026-05-05 16:48 | 29.86746 | -12.39106 | 23960 ft | 356 kts | 53° |
| 2026-05-05 16:48 | 29.88146 | -12.36754 | 23960 ft | 356 kts | 53° |
| 2026-05-05 16:49 | 29.89543 | -12.34403 | 23959 ft | 356 kts | 53° |
| 2026-05-05 16:49 | 29.90941 | -12.32052 | 23958 ft | 356 kts | 53° |
| 2026-05-05 16:49 | 29.92337 | -12.29701 | 23957 ft | 355 kts | 53° |
| 2026-05-05 16:49 | 29.93733 | -12.27349 | 23957 ft | 355 kts | 53° |
| 2026-05-05 16:50 | 29.95128 | -12.24997 | 23956 ft | 355 kts | 53° |
| 2026-05-05 16:50 | 29.96521 | -12.22647 | 23956 ft | 355 kts | 53° |
| 2026-05-05 16:50 | 29.97916 | -12.20293 | 23955 ft | 355 kts | 53° |
| 2026-05-05 16:50 | 29.99309 | -12.17941 | 23954 ft | 355 kts | 53° |
| 2026-05-05 16:51 | 30.00703 | -12.15587 | 23953 ft | 355 kts | 53° |
| 2026-05-05 16:51 | 30.02094 | -12.13234 | 23953 ft | 355 kts | 53° |
| 2026-05-05 16:51 | 30.03467 | -12.10912 | 23952 ft | 355 kts | 53° |
| 2026-05-05 16:51 | 30.04876 | -12.08527 | 23951 ft | 355 kts | 54° |
| 2026-05-05 16:52 | 30.06267 | -12.06171 | 23951 ft | 355 kts | 54° |
| 2026-05-05 16:52 | 30.07636 | -12.03850 | 23951 ft | 355 kts | 54° |
| 2026-05-05 16:52 | 30.09026 | -12.01493 | 23949 ft | 355 kts | 54° |
| 2026-05-05 16:52 | 30.10414 | -11.99139 | 23949 ft | 355 kts | 54° |
| 2026-05-05 16:53 | 30.11805 | -11.96779 | 23949 ft | 355 kts | 54° |
| 2026-05-05 16:53 | 30.13191 | -11.94424 | 23947 ft | 355 kts | 54° |
| 2026-05-05 16:53 | 30.14578 | -11.92066 | 23947 ft | 355 kts | 54° |
| 2026-05-05 16:53 | 30.15964 | -11.89709 | 23947 ft | 355 kts | 54° |
| 2026-05-05 16:54 | 30.17350 | -11.87351 | 23946 ft | 355 kts | 54° |
| 2026-05-05 16:54 | 30.18735 | -11.84993 | 23945 ft | 355 kts | 54° |
| 2026-05-05 16:54 | 30.20119 | -11.82635 | 23946 ft | 355 kts | 54° |
| 2026-05-05 16:54 | 30.21504 | -11.80275 | 23948 ft | 354 kts | 54° |
| 2026-05-05 16:55 | 30.22886 | -11.77918 | 23946 ft | 354 kts | 54° |
| 2026-05-05 16:55 | 30.24268 | -11.75558 | 23944 ft | 354 kts | 54° |
| 2026-05-05 16:55 | 30.25650 | -11.73198 | 23944 ft | 354 kts | 54° |
| 2026-05-05 16:55 | 30.27031 | -11.70838 | 23943 ft | 354 kts | 54° |
| 2026-05-05 16:56 | 30.28413 | -11.68475 | 23941 ft | 354 kts | 54° |
| 2026-05-05 16:56 | 30.29793 | -11.66114 | 23942 ft | 354 kts | 54° |
| 2026-05-05 16:56 | 30.31172 | -11.63753 | 23941 ft | 354 kts | 54° |
| 2026-05-05 16:56 | 30.32551 | -11.61391 | 23940 ft | 354 kts | 54° |
| 2026-05-05 16:57 | 30.33928 | -11.59029 | 23954 ft | 354 kts | 54° |
| 2026-05-05 16:57 | 30.35301 | -11.56672 | 23967 ft | 353 kts | 54° |
| 2026-05-05 16:57 | 30.36673 | -11.54315 | 23971 ft | 353 kts | 54° |
| 2026-05-05 16:57 | 30.38043 | -11.51960 | 23972 ft | 353 kts | 54° |
| 2026-05-05 16:58 | 30.39413 | -11.49601 | 23971 ft | 353 kts | 54° |
| 2026-05-05 16:58 | 30.40783 | -11.47243 | 23972 ft | 353 kts | 54° |
| 2026-05-05 16:58 | 30.42152 | -11.44885 | 23970 ft | 353 kts | 54° |
| 2026-05-05 16:58 | 30.43520 | -11.42528 | 23971 ft | 353 kts | 54° |
| 2026-05-05 16:59 | 30.44889 | -11.40168 | 23967 ft | 353 kts | 54° |
| 2026-05-05 16:59 | 30.46257 | -11.37809 | 23966 ft | 353 kts | 54° |
| 2026-05-05 16:59 | 30.47624 | -11.35450 | 23966 ft | 353 kts | 54° |
| 2026-05-05 16:59 | 30.48992 | -11.33089 | 23965 ft | 353 kts | 54° |
| 2026-05-05 17:00 | 30.50358 | -11.30730 | 23964 ft | 353 kts | 54° |
| 2026-05-05 17:00 | 30.51726 | -11.28367 | 23964 ft | 353 kts | 54° |
| 2026-05-05 17:00 | 30.53091 | -11.26005 | 23964 ft | 353 kts | 54° |
| 2026-05-05 17:00 | 30.54455 | -11.23642 | 23963 ft | 353 kts | 54° |
| 2026-05-05 17:01 | 30.55819 | -11.21279 | 23963 ft | 353 kts | 54° |
| 2026-05-05 17:01 | 30.57183 | -11.18916 | 23963 ft | 352 kts | 54° |
| 2026-05-05 17:01 | 30.58548 | -11.16551 | 23962 ft | 353 kts | 54° |
| 2026-05-05 17:01 | 30.59910 | -11.14190 | 23960 ft | 353 kts | 54° |
| 2026-05-05 17:02 | 30.61274 | -11.11821 | 23953 ft | 353 kts | 54° |
| 2026-05-05 17:02 | 30.62638 | -11.09454 | 23949 ft | 353 kts | 54° |
| 2026-05-05 17:02 | 30.64003 | -11.07085 | 23948 ft | 353 kts | 54° |
| 2026-05-05 17:02 | 30.65348 | -11.04747 | 23951 ft | 353 kts | 54° |
| 2026-05-05 17:03 | 30.66711 | -11.02378 | 23951 ft | 353 kts | 54° |
| 2026-05-05 17:03 | 30.68090 | -10.99978 | 23949 ft | 353 kts | 54° |
| 2026-05-05 17:03 | 30.69434 | -10.97637 | 23949 ft | 353 kts | 54° |
| 2026-05-05 17:03 | 30.70792 | -10.95269 | 23951 ft | 353 kts | 54° |
| 2026-05-05 17:04 | 30.72152 | -10.92896 | 23950 ft | 353 kts | 54° |
| 2026-05-05 17:04 | 30.73510 | -10.90523 | 23950 ft | 353 kts | 54° |
| 2026-05-05 17:04 | 30.74870 | -10.88146 | 23951 ft | 352 kts | 54° |
| 2026-05-05 17:04 | 30.76226 | -10.85775 | 23952 ft | 352 kts | 54° |
| 2026-05-05 17:05 | 30.77582 | -10.83401 | 23951 ft | 352 kts | 54° |
| 2026-05-05 17:05 | 30.78938 | -10.81027 | 23954 ft | 352 kts | 54° |
| 2026-05-05 17:05 | 30.80293 | -10.78651 | 23956 ft | 352 kts | 54° |
| 2026-05-05 17:05 | 30.81646 | -10.76278 | 23956 ft | 352 kts | 54° |
| 2026-05-05 17:06 | 30.82998 | -10.73903 | 23956 ft | 352 kts | 54° |
| 2026-05-05 17:06 | 30.84351 | -10.71528 | 23957 ft | 352 kts | 54° |
| 2026-05-05 17:06 | 30.85702 | -10.69151 | 23958 ft | 352 kts | 54° |
| 2026-05-05 17:06 | 30.86615 | -10.67546 | 23958 ft | 352 kts | 54° |
| 2026-05-05 17:07 | 30.87948 | -10.65199 | 23958 ft | 352 kts | 54° |
| 2026-05-05 17:07 | 30.89315 | -10.62791 | 23958 ft | 352 kts | 54° |
| 2026-05-05 17:07 | 30.90646 | -10.60444 | 23959 ft | 352 kts | 54° |
| 2026-05-05 17:07 | 30.91995 | -10.58064 | 23961 ft | 352 kts | 54° |
| 2026-05-05 17:08 | 30.93343 | -10.55684 | 23961 ft | 352 kts | 54° |
| 2026-05-05 17:08 | 30.94689 | -10.53305 | 23962 ft | 352 kts | 54° |
| 2026-05-05 17:08 | 30.96034 | -10.50925 | 23962 ft | 352 kts | 54° |
| 2026-05-05 17:08 | 30.97381 | -10.48542 | 23962 ft | 352 kts | 54° |
| 2026-05-05 17:09 | 30.98726 | -10.46159 | 23964 ft | 352 kts | 54° |
| 2026-05-05 17:09 | 31.00070 | -10.43777 | 23964 ft | 352 kts | 54° |
| 2026-05-05 17:09 | 31.01413 | -10.41393 | 23964 ft | 352 kts | 54° |
| 2026-05-05 17:09 | 31.02755 | -10.39008 | 23967 ft | 352 kts | 54° |
| 2026-05-05 17:10 | 31.04097 | -10.36622 | 23966 ft | 352 kts | 54° |
| 2026-05-05 17:10 | 31.05437 | -10.34235 | 23971 ft | 352 kts | 54° |
| 2026-05-05 17:10 | 31.06776 | -10.31849 | 23971 ft | 352 kts | 54° |
| 2026-05-05 17:10 | 31.08114 | -10.29461 | 23970 ft | 352 kts | 54° |
| 2026-05-05 17:11 | 31.09451 | -10.27073 | 23970 ft | 352 kts | 54° |
| 2026-05-05 17:11 | 31.10787 | -10.24684 | 23973 ft | 351 kts | 54° |
| 2026-05-05 17:11 | 31.12121 | -10.22295 | 23973 ft | 351 kts | 54° |
| 2026-05-05 17:11 | 31.13454 | -10.19904 | 23974 ft | 351 kts | 54° |
| 2026-05-05 17:12 | 31.14785 | -10.17513 | 23976 ft | 351 kts | 54° |
| 2026-05-05 17:12 | 31.16113 | -10.15123 | 23976 ft | 351 kts | 54° |
| 2026-05-05 17:12 | 31.17442 | -10.12730 | 23977 ft | 351 kts | 54° |
| 2026-05-05 17:12 | 31.18766 | -10.10339 | 23979 ft | 351 kts | 54° |
| 2026-05-05 17:13 | 31.20091 | -10.07943 | 23976 ft | 351 kts | 55° |
| 2026-05-05 17:13 | 31.21412 | -10.05549 | 23978 ft | 351 kts | 55° |
| 2026-05-05 17:13 | 31.22732 | -10.03152 | 23981 ft | 351 kts | 55° |
| 2026-05-05 17:13 | 31.24031 | -10.00787 | 23983 ft | 350 kts | 55° |
| 2026-05-05 17:14 | 31.25345 | -9.98386 | 23984 ft | 350 kts | 55° |
| 2026-05-05 17:14 | 31.26655 | -9.95985 | 23985 ft | 350 kts | 55° |
| 2026-05-05 17:14 | 31.27961 | -9.93583 | 23986 ft | 350 kts | 55° |
| 2026-05-05 17:14 | 31.29265 | -9.91176 | 23987 ft | 350 kts | 55° |
| 2026-05-05 17:15 | 31.30562 | -9.88768 | 23988 ft | 350 kts | 55° |
| 2026-05-05 17:15 | 31.31855 | -9.86353 | 23988 ft | 350 kts | 56° |
| 2026-05-05 17:15 | 31.33139 | -9.83934 | 23990 ft | 350 kts | 56° |
| 2026-05-05 17:15 | 31.34414 | -9.81507 | 23991 ft | 350 kts | 56° |
| 2026-05-05 17:16 | 31.35677 | -9.79072 | 23990 ft | 350 kts | 57° |
| 2026-05-05 17:16 | 31.36922 | -9.76623 | 23988 ft | 350 kts | 57° |
| 2026-05-05 17:16 | 31.38139 | -9.74155 | 23988 ft | 350 kts | 59° |
| 2026-05-05 17:16 | 31.39422 | -9.71737 | 23986 ft | 348 kts | 49° |
| 2026-05-05 17:17 | 31.41035 | -9.69654 | 23992 ft | 344 kts | 39° |
| 2026-05-05 17:17 | 31.42811 | -9.67795 | 23995 ft | 341 kts | 34° |
| 2026-05-05 17:17 | 31.44647 | -9.66041 | 23994 ft | 340 kts | 32° |
| 2026-05-05 17:17 | 31.46504 | -9.64322 | 23992 ft | 340 kts | 32° |
| 2026-05-05 17:18 | 31.48364 | -9.62610 | 23991 ft | 340 kts | 32° |
| 2026-05-05 17:18 | 31.50220 | -9.60888 | 23992 ft | 340 kts | 32° |
| 2026-05-05 17:18 | 31.52069 | -9.59153 | 23991 ft | 340 kts | 32° |
| 2026-05-05 17:18 | 31.53906 | -9.57407 | 23991 ft | 340 kts | 33° |
| 2026-05-05 17:19 | 31.55739 | -9.55647 | 23991 ft | 341 kts | 33° |
| 2026-05-05 17:19 | 31.57565 | -9.53877 | 23992 ft | 341 kts | 33° |
| 2026-05-05 17:19 | 31.59361 | -9.52122 | 23991 ft | 341 kts | 34° |
| 2026-05-05 17:19 | 31.61176 | -9.50337 | 23989 ft | 341 kts | 34° |
| 2026-05-05 17:20 | 31.62989 | -9.48544 | 23989 ft | 341 kts | 34° |
| 2026-05-05 17:20 | 31.64798 | -9.46748 | 23990 ft | 341 kts | 34° |
| 2026-05-05 17:20 | 31.66602 | -9.44949 | 23990 ft | 341 kts | 34° |
| 2026-05-05 17:20 | 31.68405 | -9.43147 | 23990 ft | 340 kts | 34° |
| 2026-05-05 17:21 | 31.70205 | -9.41342 | 23990 ft | 340 kts | 34° |
| 2026-05-05 17:21 | 31.72005 | -9.39535 | 23992 ft | 340 kts | 34° |
| 2026-05-05 17:21 | 31.73804 | -9.37725 | 23988 ft | 340 kts | 34° |
| 2026-05-05 17:22 | 31.77396 | -9.34103 | 23992 ft | 340 kts | 35° |
| 2026-05-05 17:22 | 31.79192 | -9.32290 | 23992 ft | 340 kts | 35° |
| 2026-05-05 17:22 | 31.80984 | -9.30478 | 23991 ft | 340 kts | 35° |
| 2026-05-05 17:22 | 31.82779 | -9.28662 | 23991 ft | 340 kts | 35° |
| 2026-05-05 17:23 | 31.84252 | -9.27172 | 23991 ft | 340 kts | 35° |
| 2026-05-05 17:23 | 31.85690 | -9.25714 | 23991 ft | 340 kts | 35° |
| 2026-05-05 17:23 | 31.87480 | -9.23900 | 23992 ft | 340 kts | 35° |
| 2026-05-05 17:23 | 31.89272 | -9.22082 | 23991 ft | 340 kts | 35° |
| 2026-05-05 17:24 | 31.91062 | -9.20266 | 23983 ft | 340 kts | 35° |
| 2026-05-05 17:24 | 31.92855 | -9.18445 | 23986 ft | 340 kts | 35° |
| 2026-05-05 17:24 | 31.94643 | -9.16628 | 23989 ft | 340 kts | 35° |
| 2026-05-05 17:24 | 31.96432 | -9.14809 | 23990 ft | 340 kts | 35° |
| 2026-05-05 17:25 | 31.98222 | -9.12989 | 23990 ft | 340 kts | 35° |
| 2026-05-05 17:25 | 31.99404 | -9.11785 | 23990 ft | 340 kts | 35° |
| 2026-05-05 17:25 | 32.01796 | -9.09350 | 23992 ft | 339 kts | 36° |
| 2026-05-05 17:25 | 32.03579 | -9.07533 | 23991 ft | 339 kts | 36° |
| 2026-05-05 17:26 | 32.05338 | -9.05738 | 23989 ft | 339 kts | 36° |
| 2026-05-05 17:26 | 32.07141 | -9.03895 | 23989 ft | 338 kts | 36° |
| 2026-05-05 17:26 | 32.08896 | -9.02102 | 23989 ft | 338 kts | 36° |
| 2026-05-05 17:26 | 32.10670 | -9.00286 | 23989 ft | 338 kts | 36° |
| 2026-05-05 17:27 | 32.12445 | -8.98468 | 23988 ft | 338 kts | 36° |
| 2026-05-05 17:27 | 32.14216 | -8.96654 | 23988 ft | 337 kts | 36° |
| 2026-05-05 17:27 | 32.15987 | -8.94838 | 23989 ft | 337 kts | 36° |
| 2026-05-05 17:27 | 32.17755 | -8.93024 | 23989 ft | 337 kts | 36° |
| 2026-05-05 17:28 | 32.19522 | -8.91210 | 23989 ft | 336 kts | 36° |
| 2026-05-05 17:28 | 32.21286 | -8.89398 | 23990 ft | 336 kts | 36° |
| 2026-05-05 17:28 | 32.23049 | -8.87587 | 23990 ft | 336 kts | 36° |
| 2026-05-05 17:28 | 32.24812 | -8.85774 | 23990 ft | 336 kts | 36° |
| 2026-05-05 17:29 | 32.26574 | -8.83962 | 23990 ft | 335 kts | 36° |
| 2026-05-05 17:29 | 32.28333 | -8.82152 | 23991 ft | 335 kts | 36° |
| 2026-05-05 17:29 | 32.30091 | -8.80341 | 23991 ft | 335 kts | 36° |
| 2026-05-05 17:29 | 32.31846 | -8.78533 | 23991 ft | 335 kts | 36° |
| 2026-05-05 17:30 | 32.33601 | -8.76723 | 23992 ft | 335 kts | 36° |
| 2026-05-05 17:30 | 32.35356 | -8.74914 | 23993 ft | 334 kts | 36° |
| 2026-05-05 17:30 | 32.37107 | -8.73106 | 23993 ft | 334 kts | 36° |
| 2026-05-05 17:30 | 32.38860 | -8.71297 | 23993 ft | 334 kts | 36° |
| 2026-05-05 17:31 | 32.40609 | -8.69490 | 23993 ft | 334 kts | 36° |
| 2026-05-05 17:31 | 32.42360 | -8.67681 | 23995 ft | 334 kts | 36° |
| 2026-05-05 17:31 | 32.44108 | -8.65873 | 23996 ft | 334 kts | 36° |
| 2026-05-05 17:31 | 32.45855 | -8.64066 | 23993 ft | 334 kts | 36° |
| 2026-05-05 17:32 | 32.47603 | -8.62257 | 23994 ft | 333 kts | 36° |
| 2026-05-05 17:32 | 32.49347 | -8.60451 | 23996 ft | 333 kts | 36° |
| 2026-05-05 17:32 | 32.51095 | -8.58640 | 23998 ft | 333 kts | 36° |
| 2026-05-05 17:32 | 32.52836 | -8.56835 | 23999 ft | 333 kts | 37° |
| 2026-05-05 17:33 | 32.54579 | -8.55026 | 24001 ft | 333 kts | 37° |
| 2026-05-05 17:33 | 32.56316 | -8.53222 | 24001 ft | 333 kts | 37° |
| 2026-05-05 17:33 | 32.58058 | -8.51412 | 24002 ft | 332 kts | 37° |
| 2026-05-05 17:33 | 32.59773 | -8.49630 | 24003 ft | 332 kts | 37° |
| 2026-05-05 17:34 | 32.61511 | -8.47822 | 24005 ft | 332 kts | 37° |
| 2026-05-05 17:34 | 32.63247 | -8.46015 | 24006 ft | 332 kts | 37° |
| 2026-05-05 17:34 | 32.64984 | -8.44207 | 24006 ft | 332 kts | 37° |
| 2026-05-05 17:34 | 32.66717 | -8.42401 | 24008 ft | 332 kts | 37° |
| 2026-05-05 17:35 | 32.68450 | -8.40594 | 24010 ft | 332 kts | 37° |
| 2026-05-05 17:35 | 32.70182 | -8.38787 | 24012 ft | 331 kts | 37° |
| 2026-05-05 17:35 | 32.71914 | -8.36979 | 24012 ft | 331 kts | 37° |
| 2026-05-05 17:35 | 32.73643 | -8.35172 | 24013 ft | 331 kts | 37° |
| 2026-05-05 17:36 | 32.75165 | -8.33582 | 24016 ft | 331 kts | 37° |
| 2026-05-05 17:36 | 32.75739 | -8.32981 | 24017 ft | 331 kts | 37° |
| 2026-05-05 17:36 | 32.77467 | -8.31173 | 24018 ft | 331 kts | 37° |
| 2026-05-05 17:36 | 32.79193 | -8.29367 | 24019 ft | 331 kts | 37° |
| 2026-05-05 17:37 | 32.80918 | -8.27559 | 24019 ft | 331 kts | 37° |
| 2026-05-05 17:37 | 32.82083 | -8.26338 | 24021 ft | 331 kts | 37° |
| 2026-05-05 17:37 | 32.84365 | -8.23944 | 24021 ft | 330 kts | 37° |
| 2026-05-05 17:37 | 32.86089 | -8.22134 | 24024 ft | 330 kts | 37° |
| 2026-05-05 17:38 | 32.87809 | -8.20326 | 24025 ft | 330 kts | 37° |
| 2026-05-05 17:38 | 32.89527 | -8.18519 | 24029 ft | 330 kts | 37° |
| 2026-05-05 17:38 | 32.91246 | -8.16710 | 24030 ft | 330 kts | 37° |
| 2026-05-05 17:38 | 32.92963 | -8.14901 | 24030 ft | 329 kts | 37° |
| 2026-05-05 17:39 | 32.94678 | -8.13092 | 24032 ft | 329 kts | 37° |
| 2026-05-05 17:39 | 32.96393 | -8.11282 | 24033 ft | 329 kts | 37° |
| 2026-05-05 17:39 | 32.98105 | -8.09475 | 24034 ft | 329 kts | 37° |
| 2026-05-05 17:39 | 32.99815 | -8.07667 | 24035 ft | 329 kts | 37° |
| 2026-05-05 17:40 | 33.01524 | -8.05858 | 24037 ft | 329 kts | 37° |
| 2026-05-05 17:40 | 33.03232 | -8.04048 | 24039 ft | 328 kts | 37° |
| 2026-05-05 17:40 | 33.04940 | -8.02237 | 24039 ft | 328 kts | 37° |
| 2026-05-05 17:40 | 33.06645 | -8.00427 | 24039 ft | 328 kts | 37° |
| 2026-05-05 17:41 | 33.08349 | -7.98615 | 24039 ft | 328 kts | 37° |
| 2026-05-05 17:41 | 33.10050 | -7.96804 | 24040 ft | 328 kts | 37° |
| 2026-05-05 17:41 | 33.11751 | -7.94992 | 24040 ft | 328 kts | 37° |
| 2026-05-05 17:41 | 33.13448 | -7.93181 | 24040 ft | 328 kts | 37° |
| 2026-05-05 17:42 | 33.15146 | -7.91366 | 24041 ft | 327 kts | 38° |
| 2026-05-05 17:42 | 33.16840 | -7.89552 | 24043 ft | 327 kts | 38° |
| 2026-05-05 17:42 | 33.18534 | -7.87735 | 24044 ft | 327 kts | 38° |
| 2026-05-05 17:42 | 33.20225 | -7.85917 | 24044 ft | 327 kts | 38° |
| 2026-05-05 17:43 | 33.21890 | -7.84123 | 24045 ft | 327 kts | 38° |
| 2026-05-05 17:43 | 33.23575 | -7.82303 | 24047 ft | 327 kts | 38° |
| 2026-05-05 17:43 | 33.25258 | -7.80479 | 24049 ft | 326 kts | 38° |
| 2026-05-05 17:43 | 33.26937 | -7.78654 | 24048 ft | 326 kts | 38° |
| 2026-05-05 17:44 | 33.28613 | -7.76824 | 24048 ft | 326 kts | 38° |
| 2026-05-05 17:44 | 33.30284 | -7.74990 | 24049 ft | 326 kts | 38° |
| 2026-05-05 17:44 | 33.31949 | -7.73151 | 24050 ft | 326 kts | 39° |
| 2026-05-05 17:44 | 33.33610 | -7.71304 | 24050 ft | 326 kts | 39° |
| 2026-05-05 17:45 | 33.35262 | -7.69446 | 24050 ft | 326 kts | 39° |
| 2026-05-05 17:45 | 33.36903 | -7.67574 | 24051 ft | 326 kts | 40° |
| 2026-05-05 17:45 | 33.38528 | -7.65680 | 24050 ft | 326 kts | 41° |
| 2026-05-05 17:45 | 33.40167 | -7.63808 | 24043 ft | 324 kts | 34° |
| 2026-05-05 17:46 | 33.42081 | -7.62479 | 24042 ft | 314 kts | 14° |
| 2026-05-05 17:46 | 33.44173 | -7.61963 | 24044 ft | 302 kts | 354° |
| 2026-05-05 17:46 | 33.46204 | -7.62251 | 24048 ft | 290 kts | 338° |
| 2026-05-05 17:46 | 33.48110 | -7.62977 | 24044 ft | 286 kts | 332° |
| 2026-05-05 17:47 | 33.49960 | -7.63838 | 24035 ft | 285 kts | 330° |
| 2026-05-05 17:47 | 33.51802 | -7.64720 | 24028 ft | 285 kts | 330° |
| 2026-05-05 17:47 | 33.53655 | -7.65582 | 24025 ft | 286 kts | 332° |
| 2026-05-05 17:47 | 33.55519 | -7.66411 | 24026 ft | 286 kts | 332° |
| 2026-05-05 17:48 | 33.57401 | -7.67211 | 24024 ft | 287 kts | 333° |
| 2026-05-05 17:48 | 33.59288 | -7.67982 | 24023 ft | 287 kts | 334° |
| 2026-05-05 17:48 | 33.61188 | -7.68732 | 24023 ft | 287 kts | 334° |
| 2026-05-05 17:48 | 33.63092 | -7.69466 | 24023 ft | 288 kts | 335° |
| 2026-05-05 17:49 | 33.65001 | -7.70185 | 24023 ft | 288 kts | 335° |
| 2026-05-05 17:49 | 33.66915 | -7.70895 | 24023 ft | 288 kts | 335° |
| 2026-05-05 17:49 | 33.68827 | -7.71596 | 24023 ft | 288 kts | 336° |
| 2026-05-05 17:49 | 33.70746 | -7.72292 | 24023 ft | 288 kts | 336° |
| 2026-05-05 17:50 | 33.72665 | -7.72984 | 24023 ft | 288 kts | 336° |
| 2026-05-05 17:50 | 33.74584 | -7.73672 | 24023 ft | 288 kts | 336° |
| 2026-05-05 17:50 | 33.76502 | -7.74357 | 24022 ft | 288 kts | 336° |
| 2026-05-05 17:50 | 33.78423 | -7.75040 | 24022 ft | 288 kts | 336° |
| 2026-05-05 17:51 | 33.80343 | -7.75722 | 24024 ft | 288 kts | 336° |
| 2026-05-05 17:51 | 33.82261 | -7.76402 | 24023 ft | 288 kts | 336° |
| 2026-05-05 17:51 | 33.84183 | -7.77082 | 24022 ft | 288 kts | 336° |
| 2026-05-05 17:51 | 33.86076 | -7.77753 | 24021 ft | 288 kts | 336° |
| 2026-05-05 17:52 | 33.87996 | -7.78432 | 24022 ft | 288 kts | 336° |
| 2026-05-05 17:52 | 33.89916 | -7.79111 | 24022 ft | 287 kts | 336° |
| 2026-05-05 17:52 | 33.91836 | -7.79791 | 24021 ft | 287 kts | 336° |
| 2026-05-05 17:52 | 33.93755 | -7.80470 | 24020 ft | 287 kts | 336° |
| 2026-05-05 17:53 | 33.95675 | -7.81149 | 24020 ft | 287 kts | 336° |
| 2026-05-05 17:53 | 33.97593 | -7.81828 | 24020 ft | 287 kts | 336° |
| 2026-05-05 17:53 | 33.99511 | -7.82507 | 24020 ft | 287 kts | 336° |
| 2026-05-05 17:53 | 34.01429 | -7.83186 | 24021 ft | 287 kts | 336° |
| 2026-05-05 17:54 | 34.03347 | -7.83866 | 24021 ft | 287 kts | 336° |
| 2026-05-05 17:54 | 34.05265 | -7.84546 | 24021 ft | 287 kts | 336° |
| 2026-05-05 17:54 | 34.07184 | -7.85227 | 24020 ft | 287 kts | 336° |
| 2026-05-05 17:54 | 34.09100 | -7.85906 | 24019 ft | 287 kts | 336° |
| 2026-05-05 17:55 | 34.11019 | -7.86588 | 24019 ft | 287 kts | 336° |
| 2026-05-05 17:55 | 34.12935 | -7.87268 | 24018 ft | 287 kts | 336° |
| 2026-05-05 17:55 | 34.14852 | -7.87949 | 24018 ft | 287 kts | 336° |
| 2026-05-05 17:55 | 34.16768 | -7.88630 | 24022 ft | 287 kts | 336° |
| 2026-05-05 17:56 | 34.18036 | -7.89081 | 24021 ft | 287 kts | 336° |
| 2026-05-05 17:56 | 34.19953 | -7.89763 | 24019 ft | 287 kts | 336° |
| 2026-05-05 17:56 | 34.21870 | -7.90446 | 24017 ft | 287 kts | 336° |
| 2026-05-05 17:56 | 34.23787 | -7.91128 | 24017 ft | 287 kts | 336° |
| 2026-05-05 17:57 | 34.25703 | -7.91811 | 24017 ft | 287 kts | 336° |
| 2026-05-05 17:57 | 34.27619 | -7.92495 | 24018 ft | 287 kts | 336° |
| 2026-05-05 17:57 | 34.29536 | -7.93178 | 24018 ft | 287 kts | 336° |
| 2026-05-05 17:57 | 34.31451 | -7.93862 | 24018 ft | 287 kts | 336° |
| 2026-05-05 17:58 | 34.33368 | -7.94546 | 24017 ft | 287 kts | 336° |
| 2026-05-05 17:58 | 34.35283 | -7.95230 | 24016 ft | 287 kts | 336° |
| 2026-05-05 17:58 | 34.37198 | -7.95915 | 24016 ft | 287 kts | 336° |
| 2026-05-05 17:58 | 34.39114 | -7.96600 | 24015 ft | 287 kts | 336° |
| 2026-05-05 17:59 | 34.41028 | -7.97284 | 24017 ft | 287 kts | 336° |
| 2026-05-05 17:59 | 34.42945 | -7.97970 | 24019 ft | 287 kts | 336° |
| 2026-05-05 17:59 | 34.44859 | -7.98655 | 24020 ft | 287 kts | 336° |
| 2026-05-05 17:59 | 34.46774 | -7.99341 | 24020 ft | 287 kts | 336° |
| 2026-05-05 18:00 | 34.48688 | -8.00027 | 24022 ft | 287 kts | 336° |
| 2026-05-05 18:00 | 34.50602 | -8.00713 | 24021 ft | 287 kts | 336° |
| 2026-05-05 18:00 | 34.52517 | -8.01400 | 24020 ft | 287 kts | 336° |
| 2026-05-05 18:00 | 34.54431 | -8.02087 | 24022 ft | 287 kts | 336° |
| 2026-05-05 18:01 | 34.56344 | -8.02774 | 24024 ft | 287 kts | 336° |
| 2026-05-05 18:01 | 34.58259 | -8.03461 | 24024 ft | 287 kts | 336° |
| 2026-05-05 18:01 | 34.60171 | -8.04148 | 24024 ft | 287 kts | 336° |
| 2026-05-05 18:01 | 34.62084 | -8.04836 | 24019 ft | 287 kts | 336° |
| 2026-05-05 18:02 | 34.64000 | -8.05526 | 24018 ft | 287 kts | 336° |
| 2026-05-05 18:02 | 34.65915 | -8.06215 | 24018 ft | 287 kts | 336° |
| 2026-05-05 18:02 | 34.67829 | -8.06905 | 24018 ft | 287 kts | 336° |
| 2026-05-05 18:02 | 34.69720 | -8.07586 | 24019 ft | 287 kts | 336° |
| 2026-05-05 18:03 | 34.71635 | -8.08277 | 24019 ft | 287 kts | 336° |
| 2026-05-05 18:03 | 34.73548 | -8.08967 | 24019 ft | 287 kts | 337° |
| 2026-05-05 18:03 | 34.75463 | -8.09658 | 24018 ft | 287 kts | 337° |
| 2026-05-05 18:03 | 34.77378 | -8.10350 | 24018 ft | 287 kts | 337° |
| 2026-05-05 18:04 | 34.79295 | -8.11042 | 24017 ft | 287 kts | 337° |
| 2026-05-05 18:04 | 34.81209 | -8.11734 | 24017 ft | 287 kts | 337° |
| 2026-05-05 18:04 | 34.83125 | -8.12427 | 24017 ft | 287 kts | 337° |
| 2026-05-05 18:04 | 34.85039 | -8.13119 | 24018 ft | 287 kts | 337° |
| 2026-05-05 18:05 | 34.86956 | -8.13813 | 24018 ft | 287 kts | 337° |
| 2026-05-05 18:05 | 34.88872 | -8.14507 | 24018 ft | 287 kts | 337° |
| 2026-05-05 18:05 | 34.90786 | -8.15200 | 24018 ft | 287 kts | 337° |
| 2026-05-05 18:05 | 34.92702 | -8.15894 | 24017 ft | 287 kts | 337° |
| 2026-05-05 18:06 | 34.94617 | -8.16588 | 24017 ft | 287 kts | 337° |
| 2026-05-05 18:06 | 34.95911 | -8.17058 | 24017 ft | 287 kts | 337° |
| 2026-05-05 18:06 | 34.98448 | -8.17978 | 24017 ft | 287 kts | 337° |
| 2026-05-05 18:06 | 35.00363 | -8.18674 | 24017 ft | 287 kts | 337° |
| 2026-05-05 18:07 | 35.02278 | -8.19369 | 24017 ft | 287 kts | 337° |
| 2026-05-05 18:07 | 35.04194 | -8.20065 | 24017 ft | 287 kts | 337° |
| 2026-05-05 18:07 | 35.06108 | -8.20761 | 24016 ft | 287 kts | 337° |
| 2026-05-05 18:07 | 35.08023 | -8.21458 | 24016 ft | 287 kts | 337° |
| 2026-05-05 18:08 | 35.09939 | -8.22155 | 24015 ft | 287 kts | 337° |
| 2026-05-05 18:08 | 35.11855 | -8.22852 | 24015 ft | 287 kts | 337° |
| 2026-05-05 18:08 | 35.13770 | -8.23550 | 24015 ft | 287 kts | 337° |
| 2026-05-05 18:08 | 35.15683 | -8.24247 | 24015 ft | 287 kts | 337° |
| 2026-05-05 18:09 | 35.17599 | -8.24946 | 24016 ft | 287 kts | 337° |
| 2026-05-05 18:09 | 35.19514 | -8.25645 | 24015 ft | 287 kts | 337° |
| 2026-05-05 18:09 | 35.21431 | -8.26344 | 24015 ft | 287 kts | 337° |
| 2026-05-05 18:09 | 35.23346 | -8.27043 | 24014 ft | 287 kts | 337° |
| 2026-05-05 18:10 | 35.25262 | -8.27743 | 24014 ft | 287 kts | 337° |
| 2026-05-05 18:10 | 35.27177 | -8.28442 | 24021 ft | 287 kts | 337° |
| 2026-05-05 18:10 | 35.29090 | -8.29141 | 24031 ft | 287 kts | 337° |
| 2026-05-05 18:10 | 35.31001 | -8.29839 | 24036 ft | 286 kts | 337° |
| 2026-05-05 18:11 | 35.32909 | -8.30536 | 24038 ft | 286 kts | 337° |
| 2026-05-05 18:11 | 35.34819 | -8.31234 | 24039 ft | 286 kts | 337° |
| 2026-05-05 18:11 | 35.36728 | -8.31932 | 24039 ft | 286 kts | 337° |
| 2026-05-05 18:11 | 35.38637 | -8.32631 | 24038 ft | 286 kts | 337° |
| 2026-05-05 18:12 | 35.40546 | -8.33330 | 24038 ft | 286 kts | 337° |
| 2026-05-05 18:12 | 35.42432 | -8.34021 | 24037 ft | 287 kts | 337° |
| 2026-05-05 18:12 | 35.44342 | -8.34722 | 24036 ft | 287 kts | 337° |
| 2026-05-05 18:12 | 35.46279 | -8.35433 | 24036 ft | 287 kts | 337° |
| 2026-05-05 18:13 | 35.48186 | -8.36134 | 24036 ft | 287 kts | 337° |
| 2026-05-05 18:13 | 35.50098 | -8.36837 | 24037 ft | 287 kts | 337° |
| 2026-05-05 18:13 | 35.52009 | -8.37539 | 24037 ft | 287 kts | 337° |
| 2026-05-05 18:13 | 35.53893 | -8.38232 | 24036 ft | 287 kts | 337° |
| 2026-05-05 18:14 | 35.55802 | -8.38935 | 24036 ft | 287 kts | 337° |
| 2026-05-05 18:14 | 35.57713 | -8.39639 | 24035 ft | 287 kts | 337° |
| 2026-05-05 18:14 | 35.59624 | -8.40343 | 24035 ft | 287 kts | 337° |
| 2026-05-05 18:14 | 35.61534 | -8.41048 | 24035 ft | 287 kts | 337° |
| 2026-05-05 18:15 | 35.63444 | -8.41752 | 24035 ft | 287 kts | 337° |
| 2026-05-05 18:15 | 35.65353 | -8.42456 | 24040 ft | 287 kts | 337° |
| 2026-05-05 18:15 | 35.67263 | -8.43160 | 24037 ft | 287 kts | 337° |
| 2026-05-05 18:15 | 35.69174 | -8.43860 | 24011 ft | 288 kts | 337° |
| 2026-05-05 18:16 | 35.71093 | -8.44569 | 24006 ft | 287 kts | 337° |
| 2026-05-05 18:16 | 35.73004 | -8.45277 | 24023 ft | 287 kts | 337° |
| 2026-05-05 18:16 | 35.74912 | -8.45983 | 24031 ft | 286 kts | 337° |
| 2026-05-05 18:16 | 35.76818 | -8.46688 | 24034 ft | 286 kts | 337° |
| 2026-05-05 18:17 | 35.78725 | -8.47393 | 24035 ft | 286 kts | 337° |
| 2026-05-05 18:17 | 35.80632 | -8.48098 | 24035 ft | 286 kts | 337° |
| 2026-05-05 18:17 | 35.82537 | -8.48803 | 24034 ft | 286 kts | 337° |
| 2026-05-05 18:17 | 35.84441 | -8.49508 | 24033 ft | 286 kts | 337° |
| 2026-05-05 18:18 | 35.86344 | -8.50212 | 24033 ft | 286 kts | 337° |
| 2026-05-05 18:18 | 35.88249 | -8.50918 | 24033 ft | 286 kts | 337° |
| 2026-05-05 18:18 | 35.90151 | -8.51624 | 24033 ft | 286 kts | 337° |
| 2026-05-05 18:18 | 35.92055 | -8.52330 | 24033 ft | 286 kts | 337° |
| 2026-05-05 18:19 | 35.93957 | -8.53036 | 24033 ft | 286 kts | 337° |
| 2026-05-05 18:19 | 35.95859 | -8.53741 | 24033 ft | 285 kts | 337° |
| 2026-05-05 18:19 | 35.97763 | -8.54448 | 24033 ft | 285 kts | 337° |
| 2026-05-05 18:19 | 35.99664 | -8.55155 | 24032 ft | 285 kts | 337° |
| 2026-05-05 18:20 | 36.01566 | -8.55862 | 24027 ft | 286 kts | 337° |
| 2026-05-05 18:20 | 36.03468 | -8.56570 | 24027 ft | 285 kts | 337° |
| 2026-05-05 18:20 | 36.05369 | -8.57277 | 24030 ft | 285 kts | 337° |
| 2026-05-05 18:20 | 36.07267 | -8.57984 | 24032 ft | 285 kts | 337° |
| 2026-05-05 18:21 | 36.09171 | -8.58694 | 24016 ft | 286 kts | 337° |
| 2026-05-05 18:21 | 36.11047 | -8.59401 | 24015 ft | 286 kts | 337° |
| 2026-05-05 18:21 | 36.12973 | -8.60121 | 24024 ft | 285 kts | 337° |
| 2026-05-05 18:21 | 36.14849 | -8.60819 | 24028 ft | 285 kts | 337° |
| 2026-05-05 18:22 | 36.16746 | -8.61532 | 24026 ft | 285 kts | 338° |
| 2026-05-05 18:22 | 36.18700 | -8.62052 | 24023 ft | 289 kts | 345° |
| 2026-05-05 18:22 | 36.20698 | -8.62395 | 24021 ft | 290 kts | 347° |
| 2026-05-05 18:22 | 36.22708 | -8.62669 | 24023 ft | 291 kts | 348° |
| 2026-05-05 18:23 | 36.24753 | -8.62890 | 24023 ft | 291 kts | 349° |
| 2026-05-05 18:23 | 36.26751 | -8.63063 | 24023 ft | 292 kts | 350° |
| 2026-05-05 18:23 | 36.28778 | -8.63210 | 24023 ft | 292 kts | 351° |
| 2026-05-05 18:23 | 36.30809 | -8.63342 | 24023 ft | 292 kts | 351° |
| 2026-05-05 18:24 | 36.32838 | -8.63474 | 24024 ft | 292 kts | 351° |
| 2026-05-05 18:24 | 36.34864 | -8.63619 | 24025 ft | 292 kts | 350° |
| 2026-05-05 18:24 | 36.36889 | -8.63791 | 24025 ft | 291 kts | 349° |
| 2026-05-05 18:24 | 36.38904 | -8.64005 | 24025 ft | 291 kts | 348° |
| 2026-05-05 18:25 | 36.40912 | -8.64269 | 24024 ft | 290 kts | 347° |
| 2026-05-05 18:25 | 36.42237 | -8.64474 | 24025 ft | 289 kts | 346° |
| 2026-05-05 18:25 | 36.44895 | -8.64968 | 24024 ft | 288 kts | 345° |
| 2026-05-05 18:25 | 36.46870 | -8.65410 | 24025 ft | 287 kts | 343° |
| 2026-05-05 18:26 | 36.48826 | -8.65913 | 24025 ft | 287 kts | 341° |
| 2026-05-05 18:26 | 36.50765 | -8.66473 | 24025 ft | 286 kts | 340° |
| 2026-05-05 18:26 | 36.52690 | -8.67087 | 24025 ft | 285 kts | 339° |
| 2026-05-05 18:26 | 36.54599 | -8.67747 | 24025 ft | 284 kts | 338° |
| 2026-05-05 18:27 | 36.56495 | -8.68443 | 24025 ft | 284 kts | 337° |
| 2026-05-05 18:27 | 36.58382 | -8.69169 | 24025 ft | 284 kts | 336° |
| 2026-05-05 18:27 | 36.60261 | -8.69912 | 24025 ft | 283 kts | 336° |
| 2026-05-05 18:27 | 36.62135 | -8.70665 | 24025 ft | 283 kts | 336° |
| 2026-05-05 18:28 | 36.65887 | -8.72157 | 24025 ft | 283 kts | 337° |
| 2026-05-05 18:28 | 36.67774 | -8.72875 | 24026 ft | 283 kts | 338° |
| 2026-05-05 18:28 | 36.69667 | -8.73558 | 24026 ft | 284 kts | 339° |
| 2026-05-05 18:29 | 36.71576 | -8.74205 | 24025 ft | 284 kts | 340° |
| 2026-05-05 18:29 | 36.73496 | -8.74807 | 24025 ft | 285 kts | 341° |
| 2026-05-05 18:29 | 36.75430 | -8.75363 | 24025 ft | 285 kts | 342° |
| 2026-05-05 18:29 | 36.77374 | -8.75871 | 24024 ft | 286 kts | 343° |
| 2026-05-05 18:30 | 36.79327 | -8.76333 | 24025 ft | 286 kts | 344° |
| 2026-05-05 18:30 | 36.81291 | -8.76755 | 24025 ft | 286 kts | 345° |
| 2026-05-05 18:30 | 36.83261 | -8.77140 | 24026 ft | 287 kts | 346° |
| 2026-05-05 18:30 | 36.85237 | -8.77498 | 24026 ft | 287 kts | 346° |
| 2026-05-05 18:31 | 36.87216 | -8.77840 | 24026 ft | 287 kts | 347° |
| 2026-05-05 18:31 | 36.89196 | -8.78173 | 24026 ft | 287 kts | 347° |
| 2026-05-05 18:31 | 36.91175 | -8.78505 | 24026 ft | 287 kts | 347° |
| 2026-05-05 18:31 | 36.93154 | -8.78846 | 24026 ft | 287 kts | 346° |
| 2026-05-05 18:32 | 36.95128 | -8.79202 | 24026 ft | 287 kts | 346° |
| 2026-05-05 18:32 | 36.97072 | -8.79576 | 24026 ft | 286 kts | 345° |
| 2026-05-05 18:32 | 36.99034 | -8.79983 | 24026 ft | 286 kts | 345° |
| 2026-05-05 18:32 | 37.00991 | -8.80422 | 24027 ft | 285 kts | 344° |
| 2026-05-05 18:33 | 37.02939 | -8.80895 | 24028 ft | 285 kts | 343° |
| 2026-05-05 18:33 | 37.04882 | -8.81404 | 23953 ft | 287 kts | 342° |
| 2026-05-05 18:33 | 37.06856 | -8.81960 | 23741 ft | 294 kts | 341° |
| 2026-05-05 18:33 | 37.08874 | -8.82565 | 23497 ft | 301 kts | 341° |
| 2026-05-05 18:34 | 37.10928 | -8.83216 | 23249 ft | 307 kts | 341° |
| 2026-05-05 18:34 | 37.13007 | -8.83898 | 22998 ft | 311 kts | 340° |
| 2026-05-05 18:34 | 37.15116 | -8.84600 | 22747 ft | 315 kts | 340° |
| 2026-05-05 18:34 | 37.17244 | -8.85309 | 22498 ft | 318 kts | 341° |
| 2026-05-05 18:35 | 37.19392 | -8.86016 | 22246 ft | 320 kts | 341° |
| 2026-05-05 18:35 | 37.21555 | -8.86709 | 21995 ft | 322 kts | 342° |
| 2026-05-05 18:35 | 37.23738 | -8.87375 | 21747 ft | 323 kts | 342° |
| 2026-05-05 18:35 | 37.25936 | -8.88004 | 21502 ft | 325 kts | 343° |
| 2026-05-05 18:36 | 37.28149 | -8.88601 | 21252 ft | 326 kts | 344° |
| 2026-05-05 18:36 | 37.30370 | -8.89164 | 21002 ft | 326 kts | 345° |
| 2026-05-05 18:36 | 37.32596 | -8.89693 | 20752 ft | 324 kts | 345° |
| 2026-05-05 18:36 | 37.34810 | -8.90185 | 20503 ft | 322 kts | 346° |
| 2026-05-05 18:37 | 37.37016 | -8.90656 | 20254 ft | 321 kts | 346° |
| 2026-05-05 18:37 | 37.39216 | -8.91121 | 20003 ft | 320 kts | 346° |
| 2026-05-05 18:37 | 37.41407 | -8.91586 | 19754 ft | 319 kts | 346° |
| 2026-05-05 18:37 | 37.43590 | -8.92060 | 19504 ft | 318 kts | 346° |
| 2026-05-05 18:38 | 37.45768 | -8.92554 | 19253 ft | 318 kts | 346° |
| 2026-05-05 18:38 | 37.47939 | -8.93075 | 19003 ft | 317 kts | 345° |
| 2026-05-05 18:38 | 37.50101 | -8.93623 | 18753 ft | 316 kts | 345° |
| 2026-05-05 18:38 | 37.52245 | -8.94194 | 18502 ft | 313 kts | 344° |
| 2026-05-05 18:39 | 37.54357 | -8.94782 | 18252 ft | 309 kts | 343° |
| 2026-05-05 18:39 | 37.56447 | -8.95381 | 18003 ft | 307 kts | 343° |
| 2026-05-05 18:39 | 37.58518 | -8.95990 | 17753 ft | 304 kts | 343° |
| 2026-05-05 18:39 | 37.60573 | -8.96603 | 17503 ft | 303 kts | 343° |
| 2026-05-05 18:40 | 37.62619 | -8.97212 | 17253 ft | 302 kts | 343° |
| 2026-05-05 18:40 | 37.64659 | -8.97816 | 17001 ft | 301 kts | 343° |
| 2026-05-05 18:40 | 37.66669 | -8.98398 | 16714 ft | 300 kts | 344° |
| 2026-05-05 18:40 | 37.68708 | -8.98968 | 16413 ft | 300 kts | 344° |
| 2026-05-05 18:41 | 37.70747 | -8.99520 | 16112 ft | 300 kts | 345° |
| 2026-05-05 18:41 | 37.72782 | -9.00056 | 15812 ft | 297 kts | 345° |
| 2026-05-05 18:41 | 37.74803 | -9.00572 | 15513 ft | 295 kts | 346° |
| 2026-05-05 18:41 | 37.76808 | -9.01067 | 15213 ft | 293 kts | 346° |
| 2026-05-05 18:42 | 37.78800 | -9.01559 | 14943 ft | 290 kts | 346° |
| 2026-05-05 18:42 | 37.80771 | -9.02045 | 14715 ft | 287 kts | 346° |
| 2026-05-05 18:42 | 37.82719 | -9.02529 | 14489 ft | 284 kts | 346° |
| 2026-05-05 18:42 | 37.84650 | -9.03019 | 14264 ft | 282 kts | 346° |
| 2026-05-05 18:43 | 37.86567 | -9.03517 | 14038 ft | 280 kts | 346° |
| 2026-05-05 18:43 | 37.88471 | -9.04024 | 13814 ft | 279 kts | 346° |
| 2026-05-05 18:43 | 37.90363 | -9.04536 | 13610 ft | 277 kts | 345° |
| 2026-05-05 18:43 | 37.92246 | -9.05054 | 13409 ft | 276 kts | 345° |
| 2026-05-05 18:44 | 37.93486 | -9.05399 | 13277 ft | 275 kts | 345° |
| 2026-05-05 18:44 | 37.95379 | -9.05929 | 13074 ft | 275 kts | 345° |
| 2026-05-05 18:44 | 37.97218 | -9.06438 | 12876 ft | 274 kts | 346° |
| 2026-05-05 18:44 | 37.99078 | -9.06946 | 12676 ft | 273 kts | 346° |
| 2026-05-05 18:45 | 38.00934 | -9.07446 | 12476 ft | 272 kts | 346° |
| 2026-05-05 18:45 | 38.02787 | -9.07940 | 12275 ft | 272 kts | 346° |
| 2026-05-05 18:45 | 38.04636 | -9.08425 | 12075 ft | 271 kts | 347° |
| 2026-05-05 18:45 | 38.06497 | -9.08911 | 11872 ft | 269 kts | 347° |
| 2026-05-05 18:46 | 38.08303 | -9.09386 | 11664 ft | 269 kts | 347° |
| 2026-05-05 18:46 | 38.10140 | -9.09875 | 11415 ft | 271 kts | 347° |
| 2026-05-05 18:46 | 38.11993 | -9.10373 | 11164 ft | 273 kts | 347° |
| 2026-05-05 18:46 | 38.13854 | -9.10881 | 10914 ft | 274 kts | 347° |
| 2026-05-05 18:47 | 38.15718 | -9.11386 | 10664 ft | 273 kts | 347° |
| 2026-05-05 18:47 | 38.17573 | -9.11887 | 10413 ft | 272 kts | 347° |
| 2026-05-05 18:47 | 38.19415 | -9.12385 | 10163 ft | 270 kts | 347° |
| 2026-05-05 18:47 | 38.21248 | -9.12877 | 9912 ft | 269 kts | 348° |
| 2026-05-05 18:48 | 38.23075 | -9.13365 | 9662 ft | 268 kts | 348° |
| 2026-05-05 18:48 | 38.24892 | -9.13849 | 9412 ft | 266 kts | 348° |
| 2026-05-05 18:48 | 38.26702 | -9.14334 | 9161 ft | 265 kts | 348° |
| 2026-05-05 18:48 | 38.28502 | -9.14823 | 8911 ft | 264 kts | 348° |
| 2026-05-05 18:49 | 38.29433 | -9.15079 | 8781 ft | 264 kts | 348° |
| 2026-05-05 18:49 | 38.31224 | -9.15574 | 8531 ft | 263 kts | 348° |
| 2026-05-05 18:49 | 38.33008 | -9.16068 | 8280 ft | 262 kts | 348° |
| 2026-05-05 18:49 | 38.34786 | -9.16558 | 8029 ft | 261 kts | 348° |
| 2026-05-05 18:50 | 38.36560 | -9.17043 | 7741 ft | 260 kts | 348° |
| 2026-05-05 18:50 | 38.38330 | -9.17525 | 7436 ft | 260 kts | 348° |
| 2026-05-05 18:50 | 38.40102 | -9.18006 | 7110 ft | 260 kts | 348° |
| 2026-05-05 18:50 | 38.41866 | -9.18483 | 6785 ft | 258 kts | 348° |
| 2026-05-05 18:51 | 38.43616 | -9.18954 | 6458 ft | 256 kts | 347° |
| 2026-05-05 18:51 | 38.45349 | -9.19417 | 6133 ft | 253 kts | 348° |
| 2026-05-05 18:51 | 38.47066 | -9.19870 | 5809 ft | 251 kts | 348° |
| 2026-05-05 18:51 | 38.48635 | -9.20283 | 5509 ft | 249 kts | 348° |
| 2026-05-05 18:52 | 38.50324 | -9.20726 | 5183 ft | 246 kts | 348° |
| 2026-05-05 18:52 | 38.51852 | -9.21125 | 4886 ft | 245 kts | 348° |
| 2026-05-05 18:52 | 38.53516 | -9.21557 | 4561 ft | 243 kts | 348° |
| 2026-05-05 18:52 | 38.55149 | -9.21976 | 4244 ft | 242 kts | 348° |
| 2026-05-05 18:53 | 38.56794 | -9.22201 | 4081 ft | 234 kts | 355° |
| 2026-05-05 18:53 | 38.58382 | -9.22351 | 3927 ft | 225 kts | 353° |
| 2026-05-05 18:53 | 38.59919 | -9.22462 | 3801 ft | 217 kts | 358° |
| 2026-05-05 18:53 | 38.61399 | -9.22346 | 3697 ft | 211 kts | 5° |
| 2026-05-05 18:54 | 38.62853 | -9.21963 | 3446 ft | 211 kts | 13° |
| 2026-05-05 18:54 | 38.64215 | -9.21335 | 3152 ft | 211 kts | 20° |
| 2026-05-05 18:54 | 38.65556 | -9.20506 | 2814 ft | 212 kts | 24° |
| 2026-05-05 18:54 | 38.66833 | -9.19650 | 2469 ft | 208 kts | 24° |
| 2026-05-05 18:55 | 38.68108 | -9.18859 | 2166 ft | 197 kts | 20° |
| 2026-05-05 18:55 | 38.69326 | -9.18205 | 1898 ft | 176 kts | 18° |
| 2026-05-05 18:55 | 38.70278 | -9.17728 | 1715 ft | 120 kts | 16° |
| 2026-05-05 18:55 | 38.70973 | -9.17369 | 1527 ft | 104 kts | 16° |
| 2026-05-05 18:56 | 38.71635 | -9.17044 | 1400 ft | 102 kts | 15° |
| 2026-05-05 18:56 | 38.72295 | -9.16715 | 1301 ft | 101 kts | 16° |
| 2026-05-05 18:56 | 38.72951 | -9.16375 | 1180 ft | 102 kts | 18° |
| 2026-05-05 18:56 | 38.73623 | -9.16010 | 1060 ft | 107 kts | 18° |
| 2026-05-05 18:57 | 38.74324 | -9.15632 | 938 ft | 110 kts | 17° |
| 2026-05-05 18:57 | 38.75043 | -9.15263 | 792 ft | 113 kts | 19° |
| 2026-05-05 18:57 | 38.75766 | -9.14857 | 654 ft | 114 kts | 19° |
| 2026-05-05 18:57 | 38.76483 | -9.14478 | 486 ft | 110 kts | 17° |
| 2026-05-05 18:58 | 38.77118 | -9.14129 | 385 ft | 85 kts | 18° |
| 2026-05-05 18:58 | 38.77587 | -9.13890 | 384 ft | 63 kts | 21° |
| 2026-05-05 18:58 | 38.77951 | -9.13699 | 384 ft | 47 kts | 20° |
| 2026-05-05 18:58 | 38.78194 | -9.13554 | 384 ft | 27 kts | 51° |
| 2026-05-05 18:59 | 38.78189 | -9.13461 | 384 ft | 4 kts | 162° |
| 2026-05-05 18:59 | 38.78155 | -9.13448 | 384 ft | 7 kts | 165° |
| 2026-05-05 18:59 | 38.78143 | -9.13444 | 384 ft | 0 kts | 165° |
| 2026-05-05 19:00 | 38.78107 | -9.13432 | 384 ft | 12 kts | 169° |
| 2026-05-05 19:00 | 38.77970 | -9.13444 | 384 ft | 24 kts | 204° |
| 2026-05-05 19:01 | 38.77805 | -9.13540 | 384 ft | 23 kts | 205° |
| 2026-05-05 19:01 | 38.77679 | -9.13592 | 384 ft | 18 kts | 184° |
| 2026-05-05 19:01 | 38.77535 | -9.13564 | 384 ft | 24 kts | 173° |
| 2026-05-05 19:01 | 38.77352 | -9.13519 | 384 ft | 25 kts | 171° |
| 2026-05-05 19:02 | 38.77285 | -9.13537 | 384 ft | 10 kts | 220° |
| 2026-05-05 19:02 | 38.77238 | -9.13573 | 384 ft | 6 kts | 184° |
| 2026-05-05 19:02 | 38.77200 | -9.13565 | 384 ft | 5 kts | 167° |
| 2026-05-05 19:02 | 38.77166 | -9.13555 | 384 ft | 5 kts | 167° |
| 2026-05-05 19:03 | 38.77150 | -9.13550 | 384 ft | 0 kts | 167° |